M I D A S
Marine Information and Data Acquisition System
Tripno 585 of the Zeeleeuw from 2003-09-08 06:55:49 to 2003-09-08 15:36:28
Back to CruiseResearch ActivitiesStationsMapUnderway DataData graphs

EquipmentUnitsComment
TimeDGPSUTC
LatitudeDGPSDM.mWGS84
LongitudeDGPSDM.mWGS84
TemperatureSBE03/SBE38deg celciusITS90
ConductivitySBE21S/mITS90
SalinitySBE21 Practical Salinity Units
ChlorophylAChelsea fluorimeterg/lCalibrated in Aceton
Missing or incorrect values are displayed as -999
Sea surface data collected by the RV Zeeleeuw from 2003-09-08 06:55:49 to 2003-09-08 15:36:28
                                                                                    Next 1000 lines
Time Latitude Longitude Temperature Conductivity Salinity ChlorophylA
2003-09-08 06:55:57 51°13.74 2°55.71 30.906438 1.221639 7.402333 -0.680121
2003-09-08 06:56:01 51°13.75 2°55.71 31.505956 1.221639 7.402791 -0.680121
2003-09-08 06:56:05 51°13.75 2°55.71 31.203103 1.221535 7.402449 -0.680121
2003-09-08 06:56:11 51°13.76 2°55.7 31.439644 1.221535 7.402678 -0.680121
2003-09-08 06:56:15 51°13.76 2°55.7 30.956281 1.22143 7.402107 -0.71383
2003-09-08 06:56:21 51°13.77 2°55.69 30.956281 1.22143 7.402107 -0.71383
2003-09-08 06:56:25 51°13.77 2°55.68 30.651552 1.22143 7.402107 -0.680121
2003-09-08 06:56:31 51°13.78 2°55.68 31.196469 1.221325 7.401422 -0.71383
2003-09-08 06:56:35 51°13.78 2°55.67 30.824386 1.221325 7.401536 -0.71383
2003-09-08 06:56:41 51°13.79 2°55.67 31.55994 1.221325 7.401422 -0.680121
2003-09-08 06:56:45 51°13.8 2°55.66 30.704464 1.221221 7.400737 -0.71383
2003-09-08 06:56:51 51°13.81 2°55.65 30.704464 1.221221 7.400737 -0.71383
2003-09-08 06:56:55 51°13.82 2°55.65 30.81922 1.221116 7.400051 -0.71383
2003-09-08 06:57:01 51°13.83 2°55.64 31.478275 1.221116 7.400051 -0.71383
2003-09-08 06:57:05 51°13.83 2°55.64 30.853561 1.221116 7.399937 -0.680121
2003-09-08 06:57:11 51°13.84 2°55.63 30.442796 1.221011 7.39948 -0.71383
2003-09-08 06:57:15 51°13.85 2°55.62 31.56471 1.221011 7.399595 -0.74754
2003-09-08 06:57:21 51°13.86 2°55.61 31.56471 1.221011 7.399595 -0.74754
2003-09-08 06:57:27 51°13.88 2°55.6 30.765968 1.220906 7.399024 -0.71383
2003-09-08 06:57:31 51°13.88 2°55.6 30.790067 1.220906 7.399138 -0.680121
2003-09-08 06:57:35 51°13.89 2°55.59 31.313714 1.220906 7.399596 -0.680121
2003-09-08 06:57:41 51°13.9 2°55.58 30.798692 1.220802 7.39914 -0.71383
2003-09-08 06:57:45 51°13.91 2°55.58 30.544951 1.220802 7.39914 -0.680121
2003-09-08 06:57:51 51°13.92 2°55.57 30.544951 1.220802 7.39914 -0.680121
2003-09-08 06:57:55 51°13.93 2°55.56 31.166348 1.220802 7.399369 -0.680121
2003-09-08 06:58:01 51°13.94 2°55.55 30.829621 1.220697 7.398912 -0.680121
2003-09-08 06:58:07 51°13.96 2°55.54 31.287559 1.220697 7.399027 -0.680121
2003-09-08 06:58:11 51°13.97 2°55.54 30.345773 1.220592 7.398341 -0.71383
2003-09-08 06:58:15 51°13.97 2°55.53 30.750562 1.220592 7.39857 -0.71383
2003-09-08 06:58:21 51°13.99 2°55.52 30.750562 1.220592 7.39857 -0.71383
2003-09-08 06:58:25 51°14 2°55.51 30.51345 1.220488 7.398228 -0.71383
2003-09-08 06:58:31 51°14.01 2°55.5 30.653406 1.220488 7.398343 -0.71383
2003-09-08 06:58:35 51°14.02 2°55.5 30.720998 1.220488 7.398686 -0.680121
2003-09-08 06:58:41 51°14.03 2°55.49 30.807595 1.220383 7.398001 -0.71383
2003-09-08 06:58:47 51°14.04 2°55.48 30.520915 1.220383 7.398115 -0.71383
2003-09-08 06:58:51 51°14.05 2°55.47 30.520915 1.220383 7.398115 -0.71383
2003-09-08 06:58:55 51°14.06 2°55.47 31.028932 1.220383 7.398115 -0.71383
2003-09-08 06:59:01 51°14.07 2°55.46 30.723305 1.220278 7.397659 -0.680121
2003-09-08 06:59:05 51°14.08 2°55.45 30.461351 1.220278 7.397773 -0.680121
2003-09-08 06:59:11 51°14.09 2°55.44 30.488211 1.220173 7.397088 -0.680121
2003-09-08 06:59:15 51°14.1 2°55.43 31.030046 1.220173 7.397431 -0.74754
2003-09-08 06:59:21 51°14.12 2°55.42 31.030046 1.220173 7.397431 -0.74754
2003-09-08 06:59:25 51°14.12 2°55.42 30.97196 1.220173 7.39766 -0.71383
2003-09-08 06:59:31 51°14.14 2°55.41 30.961612 1.220173 7.397775 -0.680121
2003-09-08 06:59:35 51°14.14 2°55.4 30.327225 1.220069 7.397203 -0.71383
2003-09-08 06:59:41 51°14.16 2°55.39 30.720509 1.219964 7.396747 -0.71383
2003-09-08 06:59:47 51°14.17 2°55.38 30.407112 1.219964 7.39709 -0.74754
2003-09-08 06:59:51 51°14.18 2°55.37 30.407112 1.219964 7.39709 -0.74754
2003-09-08 06:59:55 51°14.19 2°55.36 30.845605 1.219859 7.396519 -0.71383
2003-09-08 07:00:01 51°14.2 2°55.35 31.043482 1.219859 7.396863 -0.71383
2003-09-08 07:00:05 51°14.2 2°55.34 30.648368 1.219859 7.397092 -0.71383
2003-09-08 07:00:11 51°14.22 2°55.32 30.373833 1.219755 7.396635 -0.680121
2003-09-08 07:00:15 51°14.22 2°55.31 30.245566 1.219755 7.396864 -0.680121
2003-09-08 07:00:21 51°14.23 2°55.3 30.245566 1.219755 7.396864 -0.680121
2003-09-08 07:00:27 51°14.24 2°55.28 30.359471 1.21965 7.396293 -0.680121
2003-09-08 07:00:31 51°14.25 2°55.27 30.084064 1.21965 7.396407 -0.680121
2003-09-08 07:00:35 51°14.26 2°55.26 30.460545 1.219545 7.395951 -0.74754
2003-09-08 07:00:41 51°14.27 2°55.25 31.517233 1.219545 7.39618 -0.680121
2003-09-08 07:00:45 51°14.27 2°55.24 30.725926 1.219545 7.396409 -0.680121
2003-09-08 07:00:51 51°14.28 2°55.22 30.725926 1.219545 7.396409 -0.680121
2003-09-08 07:00:55 51°14.29 2°55.21 30.892455 1.219545 7.396523 -0.74754
2003-09-08 07:01:01 51°14.3 2°55.19 30.980703 1.219336 7.395266 -0.71383
2003-09-08 07:01:05 51°14.31 2°55.18 30.319882 1.21944 7.396066 -0.680121
2003-09-08 07:01:11 51°14.32 2°55.16 31.602933 1.219231 7.394695 -0.680121
2003-09-08 07:01:15 51°14.32 2°55.15 30.218198 1.219231 7.394809 -0.71383
2003-09-08 07:01:21 51°14.33 2°55.13 30.218198 1.219231 7.394809 -0.71383
2003-09-08 07:01:25 51°14.34 2°55.12 29.703509 1.219336 7.39561 -0.680121
2003-09-08 07:01:31 51°14.34 2°55.1 30.66348 1.219126 7.394467 -0.71383
2003-09-08 07:01:35 51°14.35 2°55.09 30.767261 1.219126 7.394581 -0.71383
2003-09-08 07:01:41 51°14.36 2°55.07 31.410692 1.218917 7.393324 -0.71383
2003-09-08 07:01:45 51°14.37 2°55.06 30.418482 1.219022 7.394239 -0.71383
2003-09-08 07:01:51 51°14.38 2°55.04 30.418482 1.219022 7.394239 -0.71383
2003-09-08 07:01:55 51°14.38 2°55.03 30.647248 1.219022 7.394239 -0.71383
2003-09-08 07:02:01 51°14.39 2°55.02 30.531287 1.219022 7.394354 -0.71383
2003-09-08 07:02:07 51°14.4 2°55 30.387771 1.218917 7.393782 -0.71383
2003-09-08 07:02:11 51°14.41 2°54.99 31.114589 1.218812 7.393096 -0.71383
2003-09-08 07:02:15 51°14.42 2°54.98 30.117928 1.219022 7.394583 -0.680121
2003-09-08 07:02:21 51°14.43 2°54.97 30.117928 1.219022 7.394583 -0.680121
2003-09-08 07:02:25 51°14.44 2°54.96 30.099148 1.218707 7.392525 -0.71383
2003-09-08 07:02:31 51°14.45 2°54.95 31.464916 1.218812 7.393325 -0.74754
2003-09-08 07:02:35 51°14.46 2°54.94 30.313697 1.218707 7.392868 -0.74754
2003-09-08 07:02:41 51°14.47 2°54.93 30.47054 1.218498 7.391725 -0.71383
2003-09-08 07:02:47 51°14.49 2°54.91 31.125403 1.218498 7.392069 -0.680121
2003-09-08 07:02:51 51°14.5 2°54.9 31.125403 1.218498 7.392069 -0.680121
2003-09-08 07:02:55 51°14.51 2°54.89 31.518997 1.218603 7.393099 -0.71383
2003-09-08 07:03:01 51°14.52 2°54.88 30.875993 1.218393 7.39207 -0.680121
2003-09-08 07:03:07 51°14.54 2°54.86 30.3607 1.218289 7.391842 -0.71383
2003-09-08 07:03:11 51°14.55 2°54.85 30.331617 1.218184 7.3915 -0.71383
2003-09-08 07:03:15 51°14.56 2°54.84 30.425886 1.218289 7.392415 -0.71383
2003-09-08 07:03:21 51°14.57 2°54.82 30.425886 1.218289 7.392415 -0.71383
2003-09-08 07:03:25 51°14.58 2°54.81 31.15766 1.218393 7.393216 -0.71383
2003-09-08 07:03:31 51°14.6 2°54.79 30.706002 1.218184 7.391843 -0.71383
2003-09-08 07:03:35 51°14.61 2°54.78 31.770358 1.218079 7.391157 -0.71383
2003-09-08 07:03:41 51°14.62 2°54.77 31.062135 1.217974 7.390471 -0.680121
2003-09-08 07:03:47 51°14.64 2°54.75 30.606234 1.218079 7.391272 -0.71383
2003-09-08 07:03:51 51°14.65 2°54.74 30.606234 1.218079 7.391272 -0.71383
2003-09-08 07:03:55 51°14.66 2°54.73 29.930164 1.218079 7.391501 -0.71383
2003-09-08 07:04:01 51°14.68 2°54.71 30.29015 1.217974 7.3907 -0.71383
2003-09-08 07:04:05 51°14.69 2°54.7 31.376393 1.21787 7.390128 -0.680121
2003-09-08 07:04:11 51°14.7 2°54.68 30.96858 1.217765 7.389557 -0.680121
2003-09-08 07:04:15 51°14.72 2°54.67 30.83894 1.21766 7.388985 -0.680121
2003-09-08 07:04:21 51°14.73 2°54.65 30.83894 1.21766 7.388985 -0.680121
2003-09-08 07:04:27 51°14.75 2°54.63 30.897616 1.21766 7.389214 -0.680121
2003-09-08 07:04:31 51°14.76 2°54.62 30.838102 1.21766 7.389328 -0.71383
2003-09-08 07:04:35 51°14.77 2°54.6 30.544671 1.21766 7.389328 -0.71383
2003-09-08 07:04:41 51°14.79 2°54.58 30.156355 1.217556 7.388871 -0.71383
2003-09-08 07:04:45 51°14.8 2°54.57 30.903753 1.217451 7.388414 -0.74754
2003-09-08 07:04:51 51°14.82 2°54.55 30.903753 1.217451 7.388414 -0.74754
2003-09-08 07:04:55 51°14.83 2°54.54 30.468962 1.217451 7.388643 -0.71383
2003-09-08 07:05:01 51°14.85 2°54.52 30.920836 1.217451 7.388758 -0.71383
2003-09-08 07:05:07 51°14.87 2°54.5 30.645149 1.217346 7.3883 -0.71383
2003-09-08 07:05:11 51°14.88 2°54.49 30.519758 1.217241 7.387843 -0.680121
2003-09-08 07:05:15 51°14.89 2°54.48 30.113242 1.217241 7.387958 -0.680121
2003-09-08 07:05:21 51°14.91 2°54.46 30.113242 1.217241 7.387958 -0.680121
2003-09-08 07:05:27 51°14.93 2°54.44 30.548524 1.217241 7.388072 -0.71383
2003-09-08 07:05:31 51°14.94 2°54.42 30.725926 1.217241 7.388187 -0.680121
2003-09-08 07:05:35 51°14.95 2°54.41 30.328138 1.216927 7.386128 -0.71383
2003-09-08 07:05:41 51°14.96 2°54.38 30.184132 1.216823 7.386014 -0.680121
2003-09-08 07:05:45 51°14.97 2°54.36 30.389772 1.216718 7.3859 -0.680121
2003-09-08 07:05:51 51°14.98 2°54.33 30.389772 1.216718 7.3859 -0.680121
2003-09-08 07:05:57 51°14.98 2°54.3 31.088854 1.216613 7.385786 -0.71383
2003-09-08 07:06:01 51°14.99 2°54.28 30.643155 1.216509 7.385329 -0.74754
2003-09-08 07:06:05 51°14.99 2°54.26 30.848885 1.216299 7.383841 -0.680121
2003-09-08 07:06:11 51°15 2°54.22 30.195008 1.216404 7.384184 -0.74754
2003-09-08 07:06:15 51°15.01 2°54.2 31.054758 1.21609 7.381781 -0.680121
2003-09-08 07:06:21 51°15.01 2°54.17 31.054758 1.21609 7.381781 -0.680121
2003-09-08 07:06:25 51°15.02 2°54.15 30.595732 1.215985 7.380981 -0.74754
2003-09-08 07:06:31 51°15.02 2°54.11 30.920836 1.215985 7.381095 -0.680121
2003-09-08 07:06:35 51°15.03 2°54.09 30.54982 1.21588 7.380523 -0.71383
2003-09-08 07:06:41 51°15.03 2°54.05 30.436797 1.215671 7.379265 -0.680121
2003-09-08 07:06:47 51°15.04 2°54.02 30.157728 1.215461 7.377892 -0.71383
2003-09-08 07:06:51 51°15.04 2°54 30.157728 1.215461 7.377892 -0.71383
2003-09-08 07:06:55 51°15.05 2°53.97 30.320233 1.215671 7.379265 -0.680121
2003-09-08 07:07:01 51°15.05 2°53.94 30.520003 1.215461 7.377892 -0.71383
2003-09-08 07:07:07 51°15.06 2°53.91 31.129714 1.215461 7.378006 -0.680121
2003-09-08 07:07:11 51°15.06 2°53.88 30.760973 1.215357 7.37732 -0.71383
2003-09-08 07:07:15 51°15.07 2°53.86 30.703905 1.215357 7.377663 -0.680121
2003-09-08 07:07:21 51°15.07 2°53.82 30.703905 1.215357 7.377663 -0.680121
2003-09-08 07:07:27 51°15.08 2°53.79 30.829587 1.215252 7.377091 -0.71383
2003-09-08 07:07:31 51°15.08 2°53.77 29.821449 1.215252 7.377434 -0.71383
2003-09-08 07:07:35 51°15.08 2°53.74 30.579731 1.215147 7.377091 -0.680121
2003-09-08 07:07:41 51°15.09 2°53.71 29.076927 1.215147 7.37732 -0.71383
2003-09-08 07:07:45 51°15.09 2°53.68 30.669951 1.215042 7.376633 -0.71383
2003-09-08 07:07:51 51°15.09 2°53.65 30.669951 1.215042 7.376633 -0.71383
2003-09-08 07:07:57 51°15.1 2°53.61 30.530656 1.215147 7.377434 -0.71383
2003-09-08 07:08:01 51°15.1 2°53.59 30.03957 1.215042 7.376748 -0.71383
2003-09-08 07:08:05 51°15.1 2°53.57 30.750142 1.214938 7.37629 -0.74754
2003-09-08 07:08:11 51°15.11 2°53.53 30.865667 1.214938 7.376405 -0.71383
2003-09-08 07:08:15 51°15.11 2°53.51 30.799181 1.214938 7.376634 -0.71383
2003-09-08 07:08:21 51°15.12 2°53.47 30.799181 1.214938 7.376634 -0.71383
2003-09-08 07:08:27 51°15.12 2°53.44 30.491051 1.214833 7.376176 -0.71383
2003-09-08 07:08:31 51°15.13 2°53.41 29.909501 1.214833 7.376405 -0.680121
2003-09-08 07:08:35 51°15.13 2°53.39 30.25784 1.214833 7.376748 -0.71383
2003-09-08 07:08:41 51°15.13 2°53.36 30.519513 1.214833 7.377091 -0.680121
2003-09-08 07:08:45 51°15.14 2°53.33 30.583057 1.214624 7.375947 -0.680121
2003-09-08 07:08:51 51°15.14 2°53.3 30.583057 1.214624 7.375947 -0.680121
2003-09-08 07:08:55 51°15.14 2°53.27 30.125009 1.214728 7.376863 -0.74754
2003-09-08 07:09:01 51°15.15 2°53.24 30.9845 1.214624 7.376519 -0.71383
2003-09-08 07:09:07 51°15.15 2°53.2 30.931189 1.214624 7.376748 -0.71383
2003-09-08 07:09:11 51°15.16 2°53.18 30.959104 1.214624 7.376863 -0.74754
2003-09-08 07:09:15 51°15.16 2°53.15 30.73005 1.214519 7.376291 -0.680121
2003-09-08 07:09:21 51°15.16 2°53.12 30.73005 1.214519 7.376291 -0.680121
2003-09-08 07:09:25 51°15.17 2°53.09 30.898766 1.214519 7.37652 -0.71383
2003-09-08 07:09:31 51°15.17 2°53.06 30.874388 1.214519 7.376634 -0.71383
2003-09-08 07:09:35 51°15.17 2°53.04 30.085333 1.214519 7.376978 -0.71383
2003-09-08 07:09:41 51°15.18 2°53 30.642665 1.214624 7.377664 -0.71383
2003-09-08 07:09:47 51°15.18 2°52.96 30.043097 1.214519 7.377092 -0.71383
2003-09-08 07:09:51 51°15.19 2°52.94 30.043097 1.214519 7.377092 -0.71383
2003-09-08 07:09:55 51°15.19 2°52.92 30.675827 1.214414 7.376634 -0.71383
2003-09-08 07:10:01 51°15.19 2°52.88 30.380995 1.214624 7.378352 -0.71383
2003-09-08 07:10:07 51°15.2 2°52.85 30.136633 1.214414 7.376978 -0.71383
2003-09-08 07:10:11 51°15.2 2°52.82 29.87003 1.214414 7.377321 -0.71383
2003-09-08 07:10:15 51°15.21 2°52.8 29.43651 1.21431 7.376634 -0.680121
2003-09-08 07:10:21 51°15.21 2°52.76 29.43651 1.21431 7.376634 -0.680121
2003-09-08 07:10:25 51°15.21 2°52.74 31.094349 1.214519 7.378352 -0.71383
2003-09-08 07:10:31 51°15.22 2°52.7 30.899987 1.21431 7.377093 -0.680121
2003-09-08 07:10:35 51°15.22 2°52.68 30.50297 1.214205 7.37652 -0.680121
2003-09-08 07:10:41 51°15.23 2°52.64 31.05173 1.21431 7.377436 -0.680121
2003-09-08 07:10:47 51°15.23 2°52.61 29.623515 1.21431 7.377436 -0.71383
2003-09-08 07:10:51 51°15.23 2°52.59 29.623515 1.21431 7.377436 -0.71383
2003-09-08 07:10:55 51°15.24 2°52.56 30.100839 1.21431 7.377665 -0.71383
2003-09-08 07:11:01 51°15.24 2°52.53 30.48418 1.214205 7.377093 -0.680121
2003-09-08 07:11:05 51°15.24 2°52.5 30.067814 1.214205 7.377436 -0.71383
2003-09-08 07:11:11 51°15.25 2°52.47 29.846344 1.21431 7.378353 -0.680121
2003-09-08 07:11:15 51°15.25 2°52.44 29.643371 1.214205 7.377895 -0.71383
2003-09-08 07:11:21 51°15.25 2°52.41 29.643371 1.214205 7.377895 -0.71383
2003-09-08 07:11:27 51°15.25 2°52.37 30.254851 1.2141 7.377322 -0.71383
2003-09-08 07:11:31 51°15.26 2°52.35 29.596702 1.2141 7.377666 -0.71383
2003-09-08 07:11:35 51°15.26 2°52.32 31.284957 1.214205 7.378812 -0.680121
2003-09-08 07:11:41 51°15.26 2°52.29 30.204686 1.2141 7.378239 -0.680121
2003-09-08 07:11:45 51°15.26 2°52.26 29.717358 1.2141 7.378468 -0.680121
2003-09-08 07:11:51 51°15.27 2°52.23 29.717358 1.2141 7.378468 -0.680121
2003-09-08 07:11:55 51°15.27 2°52.2 30.173677 1.2141 7.378583 -0.680121
2003-09-08 07:12:01 51°15.27 2°52.17 30.536823 1.214205 7.379499 -0.71383
2003-09-08 07:12:05 51°15.27 2°52.14 29.673322 1.2141 7.379041 -0.71383
2003-09-08 07:12:11 51°15.28 2°52.11 30.746404 1.2141 7.379156 -0.71383
2003-09-08 07:12:15 51°15.28 2°52.08 30.087201 1.213996 7.378698 -0.680121
2003-09-08 07:12:21 51°15.28 2°52.05 30.087201 1.213996 7.378698 -0.680121
2003-09-08 07:12:27 51°15.29 2°52.01 31.377294 1.2141 7.379729 -0.680121
2003-09-08 07:12:31 51°15.29 2°51.99 29.601136 1.2141 7.380073 -0.71383
2003-09-08 07:12:35 51°15.29 2°51.96 30.264064 1.2141 7.380417 -0.71383
2003-09-08 07:12:41 51°15.29 2°51.93 31.061474 1.213996 7.380074 -0.680121
2003-09-08 07:12:45 51°15.3 2°51.9 30.157975 1.213891 7.379501 -0.71383
2003-09-08 07:12:51 51°15.3 2°51.87 30.157975 1.213891 7.379501 -0.71383
2003-09-08 07:12:55 51°15.3 2°51.84 31.294047 1.2141 7.381105 -0.680121
2003-09-08 07:13:01 51°15.3 2°51.81 30.56145 1.213786 7.379387 -0.71383
2003-09-08 07:13:07 51°15.31 2°51.77 30.435429 1.213996 7.381106 -0.71383
2003-09-08 07:13:11 51°15.31 2°51.75 30.831262 1.213786 7.379846 -0.71383
2003-09-08 07:13:15 51°15.31 2°51.72 30.455389 1.213996 7.381336 -0.74754
2003-09-08 07:13:21 51°15.31 2°51.69 30.455389 1.213996 7.381336 -0.74754
2003-09-08 07:13:25 51°15.31 2°51.66 30.831087 1.213786 7.38019 -0.74754
2003-09-08 07:13:31 51°15.31 2°51.63 30.561765 1.213681 7.379617 -0.74754
2003-09-08 07:13:35 51°15.32 2°51.6 30.470469 1.213786 7.380649 -0.680121
2003-09-08 07:13:41 51°15.32 2°51.56 30.932897 1.212111 7.377103 -0.680121
2003-09-08 07:13:47 51°15.32 2°51.53 31.071668 1.209598 7.366895 -0.71383
2003-09-08 07:13:51 51°15.32 2°51.5 31.071668 1.209598 7.366895 -0.71383
2003-09-08 07:13:55 51°15.32 2°51.48 31.83859 1.207399 7.349801 -0.71383
2003-09-08 07:14:01 51°15.32 2°51.44 30.754894 1.20499 7.329977 -0.74754
2003-09-08 07:14:05 51°15.32 2°51.42 29.718173 1.202687 7.315644 -0.71383
2003-09-08 07:14:11 51°15.32 2°51.38 22.601915 1.201221 7.307609 -0.14077
2003-09-08 07:14:15 51°15.33 2°51.36 19.749809 1.243844 7.675179 -0.477864
2003-09-08 07:14:21 51°15.33 2°51.32 19.749809 1.243844 7.675179 -0.477864
2003-09-08 07:14:25 51°15.33 2°51.29 19.505443 1.354359 8.414784 1.5447
2003-09-08 07:14:31 51°15.33 2°51.26 19.362423 2.380171 15.406422 1.612118
2003-09-08 07:14:35 51°15.33 2°51.23 19.225821 3.006212 19.55008 1.072768
2003-09-08 07:14:41 51°15.33 2°51.2 19.166184 3.474164 23.054394 1.5447
2003-09-08 07:14:47 51°15.33 2°51.16 19.126452 3.580365 24.096054 2.825657
2003-09-08 07:14:51 51°15.33 2°51.14 19.126452 3.580365 24.096054 2.825657
2003-09-08 07:14:55 51°15.33 2°51.11 19.048478 3.694488 25.241979 3.499845
2003-09-08 07:15:01 51°15.32 2°51.07 18.977727 3.867661 26.969063 2.724529
2003-09-08 07:15:05 51°15.32 2°51.05 19.218824 4.189768 29.86079 2.421144
2003-09-08 07:15:11 51°15.32 2°51.01 19.106987 4.291545 30.86843 2.252597
2003-09-08 07:15:15 51°15.32 2°50.99 18.99809 4.349243 31.512226 2.185178
2003-09-08 07:15:21 51°15.32 2°50.95 18.99809 4.349243 31.512226 2.185178
2003-09-08 07:15:25 51°15.32 2°50.93 18.934683 4.380258 31.925101 2.016631
2003-09-08 07:15:31 51°15.32 2°50.89 19.061439 4.397031 32.146123 1.915503
2003-09-08 07:15:35 51°15.32 2°50.87 19.020088 4.414648 32.345616 1.881794
2003-09-08 07:15:41 51°15.31 2°50.83 19.070215 4.414333 32.38438 1.780665
2003-09-08 07:15:47 51°15.31 2°50.8 19.057748 4.332057 31.748035 1.679537
2003-09-08 07:15:51 51°15.31 2°50.77 19.057748 4.332057 31.748035 1.679537
2003-09-08 07:15:55 51°15.31 2°50.75 19.010239 4.419398 32.505746 1.645828
2003-09-08 07:16:01 51°15.31 2°50.71 18.917425 4.416866 32.504942 1.645828
2003-09-08 07:16:07 51°15.3 2°50.68 18.885775 4.417078 32.523379 1.612118
2003-09-08 07:16:11 51°15.3 2°50.65 18.887913 4.416445 32.526525 1.578409
2003-09-08 07:16:15 51°15.3 2°50.63 18.892641 4.405052 32.436074 1.5447
2003-09-08 07:16:21 51°15.3 2°50.59 18.892641 4.405052 32.436074 1.5447
2003-09-08 07:16:27 51°15.29 2°50.56 18.898355 4.415812 32.522985 1.477281
2003-09-08 07:16:31 51°15.29 2°50.53 18.905507 4.413491 32.51056 1.713247
2003-09-08 07:16:35 51°15.29 2°50.51 18.910932 4.415918 32.540021 1.645828
2003-09-08 07:16:41 51°15.28 2°50.47 18.916891 4.414547 32.540997 1.645828
2003-09-08 07:16:47 51°15.28 2°50.44 18.92248 4.419294 32.587386 1.612118
2003-09-08 07:16:51 51°15.28 2°50.41 18.92248 4.419294 32.587386 1.612118
2003-09-08 07:16:55 51°15.27 2°50.39 18.927616 4.425834 32.645794 1.612118
2003-09-08 07:17:01 51°15.27 2°50.35 18.934889 4.41634 32.566947 1.645828
2003-09-08 07:17:07 51°15.27 2°50.32 18.936286 4.431214 32.688487 1.645828
2003-09-08 07:17:11 51°15.27 2°50.29 18.940353 4.430476 32.680714 1.612118
2003-09-08 07:17:15 51°15.26 2°50.27 18.944297 4.429315 32.668901 1.645828
2003-09-08 07:17:21 51°15.26 2°50.23 18.944297 4.429315 32.668901 1.645828
2003-09-08 07:17:25 51°15.26 2°50.21 18.950253 4.422036 32.605524 1.679537
2003-09-08 07:17:31 51°15.25 2°50.17 18.954032 4.431214 32.677274 1.679537
2003-09-08 07:17:35 51°15.25 2°50.15 18.989757 4.438915 32.736292 1.679537
2003-09-08 07:17:41 51°15.25 2°50.11 18.962698 4.428893 32.653658 1.645828
2003-09-08 07:17:47 51°15.24 2°50.07 18.965737 4.426467 32.631978 1.679537
2003-09-08 07:17:51 51°15.24 2°50.05 18.965737 4.426467 32.631978 1.679537
2003-09-08 07:17:55 51°15.24 2°50.02 18.969022 4.438176 32.72459 1.679537
2003-09-08 07:18:01 51°15.24 2°49.99 18.971363 4.437965 32.720606 1.713247
2003-09-08 07:18:07 51°15.23 2°49.95 18.972964 4.429315 32.64594 1.679537
2003-09-08 07:18:11 51°15.23 2°49.93 18.977317 4.441024 32.741901 1.746956
2003-09-08 07:18:15 51°15.23 2°49.9 18.982613 4.44229 32.749532 1.713247
2003-09-08 07:18:21 51°15.23 2°49.87 18.982613 4.44229 32.749532 1.713247
2003-09-08 07:18:27 51°15.22 2°49.83 18.989387 4.449885 32.809349 1.746956
2003-09-08 07:18:31 51°15.22 2°49.81 18.992918 4.450096 32.807153 1.780665
2003-09-08 07:18:35 51°15.22 2°49.78 18.997679 4.453999 32.836524 1.713247
2003-09-08 07:18:41 51°15.21 2°49.75 19.002687 4.456426 32.857095 1.746956
2003-09-08 07:18:47 51°15.21 2°49.71 19.00556 4.44134 32.731606 1.780665
2003-09-08 07:18:51 51°15.21 2°49.69 19.00556 4.44134 32.731606 1.780665
2003-09-08 07:18:55 51°15.21 2°49.66 19.008556 4.454632 32.83893 1.780665
2003-09-08 07:19:01 51°15.2 2°49.63 19.011142 4.434483 32.668945 1.780665
2003-09-08 07:19:05 51°15.2 2°49.6 19.014179 4.456637 32.848703 1.746956
2003-09-08 07:19:11 51°15.2 2°49.57 19.017298 4.452522 32.810854 1.746956
2003-09-08 07:19:15 51°15.2 2°49.54 19.019924 4.461911 32.884869 1.780665
2003-09-08 07:19:21 51°15.19 2°49.51 19.019924 4.461911 32.884869 1.780665
2003-09-08 07:19:27 51°15.19 2°49.47 19.022714 4.454316 32.818328 1.746956
2003-09-08 07:19:31 51°15.19 2°49.45 19.025546 4.454105 32.81659 1.780665
2003-09-08 07:19:37 51°15.18 2°49.41 19.029977 4.455792 32.827127 1.780665
2003-09-08 07:19:41 51°15.18 2°49.39 19.031085 4.433112 32.639759 1.780665
2003-09-08 07:19:45 51°15.18 2°49.36 19.035023 4.450623 32.781731 1.814375
2003-09-08 07:19:51 51°15.18 2°49.33 19.035023 4.450623 32.781731 1.814375
2003-09-08 07:19:55 51°15.17 2°49.3 19.038962 4.456636 32.829023 1.814375
2003-09-08 07:20:01 51°15.17 2°49.27 19.043474 4.460117 32.855457 1.780665
2003-09-08 07:20:07 51°15.17 2°49.23 19.046961 4.449463 32.767124 1.848084
2003-09-08 07:20:11 51°15.17 2°49.21 19.051883 4.457902 32.833271 1.780665
2003-09-08 07:20:15 51°15.16 2°49.18 19.056271 4.468557 32.918244 1.780665
2003-09-08 07:20:21 51°15.16 2°49.15 19.056271 4.468557 32.918244 1.780665
2003-09-08 07:20:25 51°15.16 2°49.12 19.062054 4.456531 32.817481 1.780665
2003-09-08 07:20:31 51°15.15 2°49.09 19.067057 4.468451 32.913433 1.881794
2003-09-08 07:20:35 51°15.15 2°49.06 19.073454 4.464021 32.874117 1.814375
2003-09-08 07:20:41 51°15.15 2°49.03 19.07821 4.46497 32.879125 1.780665
2003-09-08 07:20:45 51°15.15 2°49 19.082761 4.470878 32.924412 1.881794
2003-09-08 07:20:51 51°15.14 2°48.97 19.082761 4.470878 32.924412 1.881794
2003-09-08 07:20:55 51°15.14 2°48.94 19.089936 4.469717 32.912601 1.814375
2003-09-08 07:21:01 51°15.14 2°48.91 19.094281 4.476363 32.962278 1.848084
2003-09-08 07:21:05 51°15.14 2°48.88 19.097478 4.469928 32.907023 1.881794
2003-09-08 07:21:11 51°15.13 2°48.85 19.100921 4.468556 32.892355 1.949212
2003-09-08 07:21:15 51°15.13 2°48.82 19.104856 4.478789 32.972682 1.881794
2003-09-08 07:21:21 51°15.13 2°48.79 19.104856 4.478789 32.972682 1.881794
2003-09-08 07:21:25 51°15.13 2°48.76 19.107602 4.472565 32.916924 1.881794
2003-09-08 07:21:31 51°15.12 2°48.73 19.111413 4.477418 32.953501 1.848084
2003-09-08 07:21:35 51°15.12 2°48.7 19.113298 4.463176 32.831223 1.949212
2003-09-08 07:21:41 51°15.12 2°48.67 19.114814 4.476468 32.937803 1.881794
2003-09-08 07:21:47 51°15.11 2°48.63 19.117314 4.471299 32.892449 1.881794
2003-09-08 07:21:51 51°15.11 2°48.61 19.117314 4.471299 32.892449 1.881794
2003-09-08 07:21:55 51°15.11 2°48.58 19.119117 4.480582 32.966603 1.915503
2003-09-08 07:22:01 51°15.11 2°48.55 19.120387 4.488917 33.032957 1.915503
2003-09-08 07:22:05 51°15.1 2°48.52 19.121371 4.479633 32.953722 1.881794
2003-09-08 07:22:11 51°15.1 2°48.49 19.121535 4.48955 33.034783 1.915503
2003-09-08 07:22:15 51°15.1 2°48.46 19.12092 4.472459 32.891885 1.949212
2003-09-08 07:22:21 51°15.1 2°48.43 19.12092 4.472459 32.891885 1.949212
2003-09-08 07:22:27 51°15.09 2°48.39 19.121248 4.494402 33.070785 1.915503
2003-09-08 07:22:31 51°15.09 2°48.37 19.120469 4.495457 33.076646 1.915503
2003-09-08 07:22:35 51°15.09 2°48.34 19.120551 4.495668 33.077819 1.915503
2003-09-08 07:22:41 51°15.08 2°48.31 19.121002 4.496301 33.082465 1.915503
2003-09-08 07:22:45 51°15.08 2°48.28 19.121248 4.496829 33.085678 1.848084
2003-09-08 07:22:51 51°15.08 2°48.25 19.121248 4.496829 33.085678 1.848084
2003-09-08 07:22:57 51°15.08 2°48.21 19.122518 4.497673 33.093191 1.848084
2003-09-08 07:23:01 51°15.07 2°48.19 19.157747 4.497673 33.093191 1.848084
2003-09-08 07:23:07 51°15.07 2°48.15 19.125222 4.496196 33.081032 1.848084
2003-09-08 07:23:11 51°15.07 2°48.13 19.127722 4.497989 33.095232 1.780665
2003-09-08 07:23:15 51°15.07 2°48.1 19.130754 4.495141 33.073476 1.848084
2003-09-08 07:23:21 51°15.06 2°48.07 19.130754 4.495141 33.073476 1.848084
2003-09-08 07:23:27 51°15.06 2°48.03 19.134277 4.495457 33.075517 1.814375
2003-09-08 07:23:31 51°15.06 2°48.01 19.136776 4.49493 33.070045 1.814375
2003-09-08 07:23:35 51°15.06 2°47.98 19.138292 4.489866 33.028928 1.814375
2003-09-08 07:23:41 51°15.05 2°47.95 19.139684 4.495879 33.076167 1.814375
2003-09-08 07:23:45 51°15.05 2°47.92 19.140749 4.496301 33.078511 1.780665
2003-09-08 07:23:51 51°15.05 2°47.89 19.140749 4.496301 33.078511 1.780665
2003-09-08 07:23:55 51°15.05 2°47.86 19.141487 4.499572 33.104304 1.814375
2003-09-08 07:24:01 51°15.04 2°47.83 19.142388 4.499572 33.102043 1.780665
2003-09-08 07:24:07 51°15.04 2°47.79 19.143248 4.500099 33.104125 1.746956
2003-09-08 07:24:11 51°15.04 2°47.77 19.143822 4.500205 33.103864 1.780665
2003-09-08 07:24:15 51°15.04 2°47.75 19.144231 4.499994 33.099867 1.780665
2003-09-08 07:24:21 51°15.03 2°47.71 19.144231 4.499994 33.099867 1.780665
2003-09-08 07:24:25 51°15.03 2°47.69 19.144067 4.499888 33.097869 1.814375
2003-09-08 07:24:31 51°15.03 2°47.65 19.17773 4.500099 33.099606 1.746956
2003-09-08 07:24:35 51°15.03 2°47.63 19.143699 4.499677 33.095568 1.814375
2003-09-08 07:24:41 51°15.02 2°47.59 19.142306 4.499677 33.095003 1.780665
2003-09-08 07:24:47 51°15.02 2°47.56 19.141446 4.499677 33.094438 1.780665
2003-09-08 07:24:51 51°15.02 2°47.53 19.141446 4.499677 33.094438 1.780665
2003-09-08 07:24:55 51°15.01 2°47.51 19.140872 4.499361 33.091834 1.780665
2003-09-08 07:25:01 51°15.01 2°47.47 19.139848 4.499361 33.091269 1.780665
2003-09-08 07:25:05 51°15.01 2°47.45 19.139807 4.499677 33.093874 1.746956
2003-09-08 07:25:11 51°15.01 2°47.41 19.139152 4.499677 33.093874 1.780665
2003-09-08 07:25:15 51°15 2°47.39 19.138046 4.49915 33.090662 1.746956
2003-09-08 07:25:21 51°15 2°47.35 19.138046 4.49915 33.090662 1.746956
2003-09-08 07:25:27 51°15 2°47.32 19.137349 4.499888 33.096175 1.814375
2003-09-08 07:25:31 51°15 2°47.3 19.136489 4.499361 33.094093 1.780665
2003-09-08 07:25:35 51°14.99 2°47.27 19.136899 4.499361 33.093528 1.780665
2003-09-08 07:25:41 51°14.99 2°47.24 19.13694 4.499255 33.092095 1.780665
2003-09-08 07:25:47 51°14.99 2°47.2 19.136612 4.499466 33.095526 1.746956
2003-09-08 07:25:51 51°14.99 2°47.18 19.136612 4.499466 33.095526 1.746956
2003-09-08 07:25:55 51°14.98 2°47.15 19.136981 4.500099 33.101865 1.746956
2003-09-08 07:26:01 51°14.98 2°47.12 19.137595 4.499255 33.096048 1.780665
2003-09-08 07:26:05 51°14.98 2°47.09 19.138046 4.500416 33.102775 1.746956
2003-09-08 07:26:11 51°14.97 2°47.06 19.138046 4.499466 33.09722 1.780665
2003-09-08 07:26:15 51°14.97 2°47.04 19.136694 4.499255 33.096048 1.746956
2003-09-08 07:26:21 51°14.97 2°47 19.136694 4.499255 33.096048 1.746956
2003-09-08 07:26:25 51°14.97 2°46.98 19.135178 4.499994 33.102127 1.746956
2003-09-08 07:26:31 51°14.97 2°46.94 19.135137 4.499255 33.096613 1.713247
2003-09-08 07:26:35 51°14.96 2°46.92 19.137718 4.499994 33.102127 1.780665
2003-09-08 07:26:41 51°14.96 2°46.88 19.139971 4.499888 33.101259 1.780665
2003-09-08 07:26:47 51°14.96 2°46.85 19.14206 4.500099 33.10356 1.780665
2003-09-08 07:26:51 51°14.96 2°46.82 19.14206 4.500099 33.10356 1.780665
2003-09-08 07:26:55 51°14.95 2°46.8 19.143781 4.499994 33.102127 1.814375
2003-09-08 07:27:01 51°14.95 2°46.76 19.144928 4.500205 33.104429 1.780665
2003-09-08 07:27:07 51°14.95 2°46.73 19.144764 4.500627 33.107337 1.713247
2003-09-08 07:27:11 51°14.95 2°46.71 19.145132 4.500732 33.109336 1.713247
2003-09-08 07:27:15 51°14.94 2°46.68 19.144805 4.500943 33.108812 1.848084
2003-09-08 07:27:21 51°14.94 2°46.65 19.144805 4.500943 33.108812 1.848084
2003-09-08 07:27:27 51°14.94 2°46.61 19.144805 4.501154 33.108854 1.746956
2003-09-08 07:27:31 51°14.94 2°46.59 19.145583 4.500838 33.105684 1.713247
2003-09-08 07:27:35 51°14.93 2°46.56 19.146484 4.500838 33.105684 1.713247
2003-09-08 07:27:41 51°14.93 2°46.53 19.146935 4.501049 33.106855 1.746956
2003-09-08 07:27:45 51°14.93 2°46.5 19.146484 4.501365 33.108895 1.713247
2003-09-08 07:27:51 51°14.93 2°46.47 19.146484 4.501365 33.108895 1.713247
2003-09-08 07:27:55 51°14.93 2°46.44 19.14632 4.501787 33.111238 1.746956
2003-09-08 07:28:01 51°14.93 2°46.41 19.146238 4.501576 33.110632 1.780665
2003-09-08 07:28:07 51°14.92 2°46.37 19.145665 4.495879 33.063185 1.713247
2003-09-08 07:28:11 51°14.92 2°46.35 19.144887 4.501787 33.111238 1.746956
2003-09-08 07:28:15 51°14.92 2°46.33 19.143822 4.501681 33.11037 1.746956
2003-09-08 07:28:21 51°14.92 2°46.29 19.143822 4.501681 33.11037 1.746956
2003-09-08 07:28:25 51°14.91 2°46.27 19.14333 4.501892 33.111541 1.746956
2003-09-08 07:28:31 51°14.91 2°46.23 19.141405 4.502314 33.113319 1.713247
2003-09-08 07:28:35 51°14.91 2°46.21 19.140176 4.501892 33.111541 1.713247
2003-09-08 07:28:41 51°14.91 2°46.17 19.139439 4.50147 33.109198 1.746956
2003-09-08 07:28:47 51°14.9 2°46.14 19.137882 4.502103 33.113843 1.713247
2003-09-08 07:28:51 51°14.9 2°46.11 19.137882 4.502103 33.113843 1.713247
2003-09-08 07:28:55 51°14.9 2°46.09 19.136776 4.502314 33.116145 1.746956
2003-09-08 07:29:01 51°14.9 2°46.05 19.135997 4.501787 33.113499 1.713247
2003-09-08 07:29:05 51°14.89 2°46.03 19.135055 4.501682 33.113195 1.780665
2003-09-08 07:29:11 51°14.89 2°45.99 19.133539 4.501576 33.112892 1.746956
2003-09-08 07:29:15 51°14.89 2°45.97 19.131204 4.501576 33.114588 1.713247
2003-09-08 07:29:21 51°14.89 2°45.93 19.131204 4.501576 33.114588 1.713247
2003-09-08 07:29:27 51°14.88 2°45.9 19.128869 4.501682 33.114891 1.713247
2003-09-08 07:29:31 51°14.88 2°45.87 19.126738 4.500943 33.109942 1.713247
2003-09-08 07:29:35 51°14.88 2°45.85 19.124567 4.500838 33.109639 1.713247
2003-09-08 07:29:41 51°14.88 2°45.81 19.122682 4.501998 33.120888 1.679537
2003-09-08 07:29:47 51°14.87 2°45.78 19.119855 4.500838 33.112465 1.713247
2003-09-08 07:29:51 51°14.87 2°45.75 19.119855 4.500838 33.112465 1.713247
2003-09-08 07:29:55 51°14.87 2°45.73 19.115265 4.50126 33.116504 1.713247
2003-09-08 07:30:01 51°14.86 2°45.69 19.112028 4.500521 33.113251 1.713247
2003-09-08 07:30:05 51°14.86 2°45.67 19.108995 4.501049 33.118725 1.679537
2003-09-08 07:30:11 51°14.86 2°45.63 19.106741 4.500732 33.117815 1.679537
2003-09-08 07:30:15 51°14.86 2°45.61 19.104774 4.499994 33.112866 1.679537
2003-09-08 07:30:21 51°14.85 2°45.57 19.104774 4.499994 33.112866 1.679537
2003-09-08 07:30:27 51°14.85 2°45.54 19.101331 4.501049 33.123815 1.679537
2003-09-08 07:30:31 51°14.85 2°45.51 19.100347 4.500205 33.119127 1.679537
2003-09-08 07:30:35 51°14.85 2°45.49 19.098667 4.499888 33.118217 1.679537
2003-09-08 07:30:41 51°14.84 2°45.45 19.094978 4.500416 33.125956 1.679537
2003-09-08 07:30:45 51°14.84 2°45.43 19.092559 4.499994 33.123612 1.645828
2003-09-08 07:30:51 51°14.84 2°45.39 19.092559 4.499994 33.123612 1.645828
2003-09-08 07:30:55 51°14.84 2°45.37 19.090878 4.499994 33.127007 1.679537
2003-09-08 07:31:01 51°14.83 2°45.33 19.089854 4.500311 33.131878 1.645828
2003-09-08 07:31:07 51°14.83 2°45.3 19.090673 4.499994 33.130403 1.612118
2003-09-08 07:31:11 51°14.83 2°45.27 19.091124 4.49493 33.090951 1.612118
2003-09-08 07:31:15 51°14.83 2°45.25 19.092477 4.496935 33.108028 1.5447
2003-09-08 07:31:21 51°14.82 2°45.21 19.092477 4.496935 33.108028 1.5447
2003-09-08 07:31:27 51°14.82 2°45.18 19.093461 4.498201 33.120721 1.5447
2003-09-08 07:31:31 51°14.82 2°45.15 19.095183 4.496935 33.111989 1.578409
2003-09-08 07:31:35 51°14.82 2°45.13 19.096617 4.496829 33.112251 1.51099
2003-09-08 07:31:41 51°14.81 2°45.09 19.099118 4.497146 33.114859 1.477281
2003-09-08 07:31:47 51°14.81 2°45.06 19.100429 4.495985 33.106429 1.5447
2003-09-08 07:31:51 51°14.81 2°45.03 19.100429 4.495985 33.106429 1.5447
2003-09-08 07:31:55 51°14.81 2°45.01 19.102438 4.495669 33.103822 1.578409
2003-09-08 07:32:01 51°14.8 2°44.97 19.104159 4.495563 33.101821 1.51099
2003-09-08 07:32:05 51°14.8 2°44.95 19.105675 4.495774 33.102994 1.51099
2003-09-08 07:32:11 51°14.8 2°44.91 19.106659 4.496091 33.10447 1.477281
2003-09-08 07:32:17 51°14.79 2°44.88 19.107643 4.498095 33.119286 1.477281
2003-09-08 07:32:21 51°14.79 2°44.85 19.107643 4.498095 33.119286 1.477281
2003-09-08 07:32:27 51°14.79 2°44.82 19.10879 4.498517 33.121631 1.51099
2003-09-08 07:32:31 51°14.79 2°44.79 19.109159 4.499361 33.127452 1.443571
2003-09-08 07:32:35 51°14.78 2°44.77 19.10961 4.499361 33.128018 1.443571
2003-09-08 07:32:41 51°14.78 2°44.73 19.109364 4.499889 33.129534 1.443571
2003-09-08 07:32:47 51°14.78 2°44.7 19.108995 4.499994 33.129271 1.51099
2003-09-08 07:32:51 51°14.78 2°44.67 19.108995 4.499994 33.129271 1.51099
2003-09-08 07:32:55 51°14.77 2°44.65 19.109159 4.500733 33.134788 1.51099
2003-09-08 07:33:01 51°14.77 2°44.61 19.108954 4.500627 33.132221 1.51099
2003-09-08 07:33:07 51°14.77 2°44.57 19.108421 4.501999 33.142953 1.51099
2003-09-08 07:33:11 51°14.76 2°44.55 19.108257 4.501471 33.138608 1.477281
2003-09-08 07:33:15 51°14.76 2°44.52 19.108052 4.502315 33.14556 1.477281
2003-09-08 07:33:21 51°14.76 2°44.49 19.108052 4.502315 33.14556 1.477281
2003-09-08 07:33:27 51°14.75 2°44.45 19.141036 4.502631 33.146469 1.5447
2003-09-08 07:33:31 51°14.75 2°44.42 19.106208 4.503265 33.152816 1.5447
2003-09-08 07:33:35 51°14.75 2°44.4 19.104774 4.502843 33.150472 1.51099
2003-09-08 07:33:41 51°14.75 2°44.36 19.103708 4.503265 33.153382 1.51099
2003-09-08 07:33:47 51°14.74 2°44.32 19.10252 4.503265 33.153382 1.578409
2003-09-08 07:33:51 51°14.74 2°44.29 19.10252 4.503265 33.153382 1.578409
2003-09-08 07:33:55 51°14.74 2°44.27 19.099732 4.503792 33.158294 1.5447
2003-09-08 07:34:01 51°14.73 2°44.23 19.097765 4.503476 33.156253 1.578409
2003-09-08 07:34:05 51°14.73 2°44.2 19.094691 4.504109 33.161468 1.5447
2003-09-08 07:34:11 51°14.73 2°44.17 19.093625 4.504636 33.167514 1.5447
2003-09-08 07:34:15 51°14.73 2°44.14 19.092764 4.504425 33.165776 1.5447
2003-09-08 07:34:21 51°14.72 2°44.1 19.092764 4.504425 33.165776 1.5447
2003-09-08 07:34:27 51°14.72 2°44.06 19.09096 4.505058 33.172125 1.51099
2003-09-08 07:34:31 51°14.72 2°44.04 19.088173 4.50548 33.176169 1.578409
2003-09-08 07:34:35 51°14.71 2°44.01 19.085385 4.505586 33.179873 1.612118
2003-09-08 07:34:41 51°14.71 2°43.97 19.082146 4.504953 33.176357 1.578409
2003-09-08 07:34:45 51°14.71 2°43.95 19.078661 4.504531 33.173447 1.578409
2003-09-08 07:34:51 51°14.71 2°43.91 19.078661 4.504531 33.173447 1.578409
2003-09-08 07:34:55 51°14.7 2°43.88 19.074274 4.505586 33.183275 1.5447
2003-09-08 07:35:01 51°14.7 2°43.85 19.071732 4.504636 33.176584 1.578409
2003-09-08 07:35:07 51°14.7 2°43.81 19.068574 4.504531 33.177983 1.612118
2003-09-08 07:35:11 51°14.69 2°43.78 19.065376 4.506008 33.191291 1.578409
2003-09-08 07:35:17 51°14.69 2°43.74 19.062669 4.507485 33.206304 1.578409
2003-09-08 07:35:21 51°14.69 2°43.72 19.062669 4.507485 33.206304 1.578409
2003-09-08 07:35:27 51°14.68 2°43.68 19.059799 4.508012 33.21406 1.612118
2003-09-08 07:35:31 51°14.68 2°43.65 19.090304 4.50759 33.212852 1.578409
2003-09-08 07:35:35 51°14.68 2°43.63 19.054139 4.506535 33.206992 1.612118
2003-09-08 07:35:41 51°14.68 2°43.59 19.051514 4.507169 33.21562 1.578409
2003-09-08 07:35:47 51°14.67 2°43.55 19.047945 4.508118 33.224019 1.578409
2003-09-08 07:35:51 51°14.67 2°43.52 19.047945 4.508118 33.224019 1.578409
2003-09-08 07:35:55 51°14.67 2°43.5 19.045525 4.510967 33.249788 1.578409
2003-09-08 07:36:01 51°14.67 2°43.46 19.042079 4.508435 33.231176 1.578409
2003-09-08 07:36:07 51°14.66 2°43.42 19.038962 4.510545 33.251426 1.612118
2003-09-08 07:36:11 51°14.66 2°43.39 19.035967 4.512127 33.266189 1.612118
2003-09-08 07:36:15 51°14.66 2°43.37 19.033259 4.50949 33.246704 1.612118
2003-09-08 07:36:21 51°14.65 2°43.33 19.033259 4.50949 33.246704 1.612118
2003-09-08 07:36:27 51°14.65 2°43.29 19.031413 4.511389 33.265218 1.578409
2003-09-08 07:36:31 51°14.65 2°43.27 19.029115 4.511283 33.265486 1.578409
2003-09-08 07:36:35 51°14.65 2°43.24 19.028171 4.513182 33.284576 1.578409
2003-09-08 07:36:41 51°14.64 2°43.2 19.026489 4.515187 33.302831 1.645828
2003-09-08 07:36:47 51°14.64 2°43.16 19.02534 4.516031 33.312079 1.612118
2003-09-08 07:36:51 51°14.64 2°43.14 19.02534 4.516031 33.312079 1.612118
2003-09-08 07:36:55 51°14.64 2°43.11 19.023289 4.514765 33.305049 1.612118
2003-09-08 07:37:01 51°14.63 2°43.07 19.021442 4.514976 33.307931 1.578409
2003-09-08 07:37:07 51°14.63 2°43.04 19.018118 4.517297 33.328808 1.612118
2003-09-08 07:37:11 51°14.63 2°43.01 19.015328 4.514343 33.306697 1.612118
2003-09-08 07:37:15 51°14.62 2°42.98 19.012291 4.514765 33.310752 1.612118
2003-09-08 07:37:21 51°14.62 2°42.95 19.012291 4.514765 33.310752 1.612118
2003-09-08 07:37:27 51°14.62 2°42.91 19.007777 4.517403 33.334245 1.612118
2003-09-08 07:37:31 51°14.62 2°42.88 19.006258 4.51677 33.330159 1.612118
2003-09-08 07:37:37 51°14.61 2°42.85 19.004657 4.51888 33.350442 1.612118
2003-09-08 07:37:41 51°14.61 2°42.82 19.00478 4.522678 33.383533 1.578409
2003-09-08 07:37:47 51°14.61 2°42.78 19.004042 4.52426 33.398324 1.612118
2003-09-08 07:37:51 51°14.6 2°42.76 19.004042 4.52426 33.398324 1.612118
2003-09-08 07:37:55 51°14.6 2°42.73 19.00478 4.524261 33.400613 1.645828
2003-09-08 07:38:01 51°14.6 2°42.69 19.005396 4.526371 33.419767 1.645828
2003-09-08 07:38:07 51°14.59 2°42.66 19.005683 4.527953 33.436284 1.612118
2003-09-08 07:38:11 51°14.59 2°42.63 19.005683 4.528481 33.441217 1.578409
2003-09-08 07:38:15 51°14.59 2°42.61 19.007407 4.529536 33.451658 1.645828
2003-09-08 07:38:21 51°14.59 2°42.57 19.007407 4.529536 33.451658 1.645828
2003-09-08 07:38:25 51°14.59 2°42.54 19.008926 4.529958 33.455147 1.612118
2003-09-08 07:38:31 51°14.58 2°42.51 19.010362 4.527426 33.435361 1.645828
2003-09-08 07:38:35 51°14.58 2°42.48 19.012168 4.528797 33.445553 1.645828
2003-09-08 07:38:41 51°14.58 2°42.44 19.014589 4.530591 33.46038 1.645828
2003-09-08 07:38:47 51°14.57 2°42.4 19.016846 4.531435 33.466785 1.679537
2003-09-08 07:38:51 51°14.57 2°42.38 19.016846 4.531435 33.466785 1.679537
2003-09-08 07:38:55 51°14.57 2°42.35 19.019308 4.529852 33.453702 1.645828
2003-09-08 07:39:01 51°14.57 2°42.32 19.021606 4.532701 33.476105 1.645828
2003-09-08 07:39:07 51°14.56 2°42.28 19.024766 4.532595 33.475232 1.679537
2003-09-08 07:39:11 51°14.56 2°42.25 19.028213 4.530274 33.45547 1.679537
2003-09-08 07:39:15 51°14.56 2°42.23 19.032397 4.53038 33.455196 1.679537
2003-09-08 07:39:21 51°14.55 2°42.19 19.032397 4.53038 33.455196 1.679537
2003-09-08 07:39:25 51°14.55 2°42.17 19.035926 4.532384 33.4689 1.713247
2003-09-08 07:39:31 51°14.55 2°42.13 19.038551 4.5346 33.486067 1.713247
2003-09-08 07:39:35 51°14.55 2°42.1 19.041095 4.534916 33.486389 1.746956
2003-09-08 07:39:41 51°14.54 2°42.07 19.044089 4.535444 33.488455 1.713247
2003-09-08 07:39:47 51°14.54 2°42.03 19.047166 4.535866 33.490222 1.746956
2003-09-08 07:39:51 51°14.54 2°42 19.047166 4.535866 33.490222 1.746956
2003-09-08 07:39:55 51°14.54 2°41.98 19.050078 4.532912 33.462941 1.746956
2003-09-08 07:40:01 51°14.53 2°41.94 19.052621 4.536499 33.490292 1.746956
2003-09-08 07:40:05 51°14.53 2°41.92 19.055123 4.536815 33.491187 1.713247
2003-09-08 07:40:11 51°14.53 2°41.88 19.057666 4.535549 33.476711 1.679537
2003-09-08 07:40:15 51°14.52 2°41.86 19.059963 4.537343 33.490958 1.679537
2003-09-08 07:40:21 51°14.52 2°41.82 19.059963 4.537343 33.490958 1.679537
2003-09-08 07:40:27 51°14.52 2°41.78 19.062669 4.537764 33.491005 1.645828
2003-09-08 07:40:31 51°14.52 2°41.76 19.065376 4.537764 33.489285 1.645828
2003-09-08 07:40:35 51°14.51 2°41.73 19.068041 4.534916 33.46346 1.645828
2003-09-08 07:40:41 51°14.51 2°41.69 19.070912 4.538186 33.488758 1.645828
2003-09-08 07:40:47 51°14.51 2°41.66 19.074233 4.537448 33.480938 1.679537
2003-09-08 07:40:51 51°14.51 2°41.63 19.074233 4.537448 33.480938 1.679537
2003-09-08 07:40:55 51°14.5 2°41.61 19.110675 4.538186 33.48532 1.612118
2003-09-08 07:41:01 51°14.5 2°41.57 19.080875 4.537131 33.473168 1.578409
2003-09-08 07:41:07 51°14.5 2°41.53 19.084196 4.538503 33.482777 1.578409
2003-09-08 07:41:11 51°14.49 2°41.51 19.087517 4.539136 33.48514 1.612118
2003-09-08 07:41:15 51°14.49 2°41.48 19.090509 4.538503 33.478767 1.5447
2003-09-08 07:41:21 51°14.49 2°41.45 19.090509 4.538503 33.478767 1.5447
2003-09-08 07:41:27 51°14.49 2°41.41 19.092559 4.538397 33.47675 1.578409
2003-09-08 07:41:31 51°14.48 2°41.38 19.095142 4.538186 33.471 1.5447
2003-09-08 07:41:35 51°14.48 2°41.36 19.097765 4.538081 33.467266 1.477281
2003-09-08 07:41:41 51°14.48 2°41.32 19.100634 4.538186 33.465275 1.51099
2003-09-08 07:41:45 51°14.48 2°41.3 19.102233 4.537869 33.459801 1.51099
2003-09-08 07:41:51 51°14.48 2°41.26 19.102233 4.537869 33.459801 1.51099
2003-09-08 07:41:57 51°14.48 2°41.22 19.103872 4.537553 33.454329 1.477281
2003-09-08 07:42:01 51°14.48 2°41.2 19.104405 4.537342 33.450871 1.443571
2003-09-08 07:42:07 51°14.48 2°41.16 19.10547 4.538186 33.456693 1.51099
2003-09-08 07:42:11 51°14.48 2°41.14 19.106413 4.538291 33.454132 1.477281
2003-09-08 07:42:15 51°14.48 2°41.11 19.107274 4.538608 33.454457 1.443571
2003-09-08 07:42:21 51°14.48 2°41.07 19.107274 4.538608 33.454457 1.443571
2003-09-08 07:42:27 51°14.48 2°41.04 19.108913 4.538291 33.451845 1.443571
2003-09-08 07:42:31 51°14.49 2°41.01 19.110716 4.539346 33.457691 1.477281
2003-09-08 07:42:35 51°14.49 2°40.99 19.112356 4.539768 33.460601 1.443571
2003-09-08 07:42:41 51°14.49 2°40.95 19.11338 4.539768 33.458886 1.443571
2003-09-08 07:42:47 51°14.49 2°40.91 19.114528 4.539557 33.457145 1.443571
2003-09-08 07:42:51 51°14.49 2°40.89 19.114528 4.539557 33.457145 1.443571
2003-09-08 07:42:55 51°14.49 2°40.86 19.115552 4.539135 33.453091 1.409862
2003-09-08 07:43:01 51°14.5 2°40.83 19.11715 4.539768 33.457171 1.443571
2003-09-08 07:43:07 51°14.5 2°40.79 19.118666 4.539768 33.456027 1.443571
2003-09-08 07:43:11 51°14.5 2°40.77 19.119322 4.540085 33.458067 1.477281
2003-09-08 07:43:15 51°14.5 2°40.74 19.120387 4.539241 33.44996 1.409862
2003-09-08 07:43:21 51°14.51 2°40.71 19.120387 4.539241 33.44996 1.409862
2003-09-08 07:43:25 51°14.51 2°40.68 19.121985 4.540296 33.456949 1.51099
2003-09-08 07:43:31 51°14.52 2°40.65 19.123256 4.54019 33.455507 1.443571
2003-09-08 07:43:35 51°14.52 2°40.62 19.125222 4.541034 33.460183 1.409862
2003-09-08 07:43:41 51°14.53 2°40.59 19.127722 4.54114 33.461053 1.443571
2003-09-08 07:43:47 51°14.54 2°40.55 19.130262 4.541984 33.466872 1.409862
2003-09-08 07:43:51 51°14.54 2°40.53 19.130262 4.541984 33.466872 1.409862
2003-09-08 07:43:55 51°14.55 2°40.51 19.131942 4.542406 33.468638 1.376153
2003-09-08 07:44:01 51°14.56 2°40.47 19.133539 4.542933 33.471846 1.409862
2003-09-08 07:44:07 51°14.56 2°40.44 19.135588 4.543672 33.476794 1.342443
2003-09-08 07:44:11 51°14.57 2°40.41 19.13739 4.544199 33.480001 1.376153
2003-09-08 07:44:15 51°14.57 2°40.39 19.139602 4.544727 33.484352 1.308734
2003-09-08 07:44:21 51°14.58 2°40.36 19.139602 4.544727 33.484352 1.308734
2003-09-08 07:44:27 51°14.59 2°40.33 19.140954 4.544832 33.481791 1.342443
2003-09-08 07:44:31 51°14.6 2°40.31 19.142757 4.544515 33.478037 1.342443
2003-09-08 07:44:35 51°14.61 2°40.28 19.1446 4.545465 33.484725 1.308734
2003-09-08 07:44:41 51°14.62 2°40.25 19.145132 4.545254 33.481269 1.275024
2003-09-08 07:44:47 51°14.63 2°40.22 19.145952 4.54652 33.491138 1.308734
2003-09-08 07:44:51 51°14.64 2°40.2 19.145952 4.54652 33.491138 1.308734
2003-09-08 07:44:55 51°14.65 2°40.18 19.146443 4.54652 33.488851 1.275024
2003-09-08 07:45:01 51°14.66 2°40.15 19.146443 4.547153 33.492927 1.342443
2003-09-08 07:45:07 51°14.67 2°40.12 19.146935 4.547786 33.49586 1.275024
2003-09-08 07:45:11 51°14.68 2°40.1 19.147181 4.547575 33.493548 1.308734
2003-09-08 07:45:15 51°14.69 2°40.08 19.148 4.548208 33.497624 1.207606
2003-09-08 07:45:21 51°14.71 2°40.06 19.148 4.548208 33.497624 1.207606
2003-09-08 07:45:27 51°14.72 2°40.03 19.148737 4.548313 33.498494 1.241315
2003-09-08 07:45:31 51°14.73 2°40.01 19.149638 4.548841 33.501128 1.275024
2003-09-08 07:45:37 51°14.75 2°39.98 19.151235 4.549368 33.504906 1.275024
2003-09-08 07:45:41 51°14.76 2°39.97 19.153898 4.548735 33.499686 1.308734
2003-09-08 07:45:45 51°14.77 2°39.95 19.157666 4.548419 33.496505 1.241315
2003-09-08 07:45:51 51°14.78 2°39.92 19.157666 4.548419 33.496505 1.241315
2003-09-08 07:45:57 51°14.8 2°39.9 19.16086 4.548208 33.494193 1.275024
2003-09-08 07:46:01 51°14.81 2°39.88 19.163686 4.547258 33.485793 1.207606
2003-09-08 07:46:07 51°14.83 2°39.86 19.166265 4.547364 33.486663 1.241315
2003-09-08 07:46:11 51°14.84 2°39.84 19.169091 4.546731 33.479158 1.207606
2003-09-08 07:46:15 51°14.85 2°39.83 19.172489 4.545043 33.465814 1.241315
2003-09-08 07:46:21 51°14.87 2°39.81 19.172489 4.545043 33.465814 1.241315
2003-09-08 07:46:27 51°14.89 2°39.79 19.174741 4.544199 33.456573 1.207606
2003-09-08 07:46:31 51°14.9 2°39.78 19.177444 4.544199 33.453148 1.207606
2003-09-08 07:46:35 51°14.91 2°39.76 19.179409 4.543671 33.446517 1.207606
2003-09-08 07:46:41 51°14.93 2°39.74 19.180924 4.542827 33.43728 1.207606
2003-09-08 07:46:47 51°14.95 2°39.72 19.182193 4.54251 33.43239 1.207606
2003-09-08 07:46:51 51°14.96 2°39.71 19.182193 4.54251 33.43239 1.207606
2003-09-08 07:46:55 51°14.97 2°39.7 19.184608 4.541139 33.41881 1.241315
2003-09-08 07:47:01 51°14.99 2°39.68 19.185673 4.5404 33.410446 1.207606
2003-09-08 07:47:07 51°15.01 2°39.66 19.186123 4.539556 33.402924 1.207606
2003-09-08 07:47:11 51°15.03 2°39.66 19.184404 4.539345 33.398907 1.241315
2003-09-08 07:47:17 51°15.05 2°39.65 19.183339 4.537974 33.385903 1.241315
2003-09-08 07:47:21 51°15.06 2°39.64 19.183339 4.537974 33.385903 1.241315
2003-09-08 07:47:27 51°15.08 2°39.63 19.18252 4.536707 33.375477 1.241315
2003-09-08 07:47:31 51°15.1 2°39.63 19.18121 4.535863 33.366819 1.207606
2003-09-08 07:47:35 51°15.11 2°39.63 19.181742 4.535125 33.358463 1.241315
2003-09-08 07:47:41 51°15.13 2°39.62 19.182152 4.534175 33.349508 1.241315
2003-09-08 07:47:47 51°15.15 2°39.62 19.183175 4.532698 33.337348 1.308734
2003-09-08 07:47:51 51°15.17 2°39.62 19.183175 4.532698 33.337348 1.308734
2003-09-08 07:47:55 51°15.18 2°39.62 19.18469 4.532171 33.332437 1.241315
2003-09-08 07:48:01 51°15.2 2°39.62 19.185304 4.531327 33.326625 1.241315
2003-09-08 07:48:05 51°15.22 2°39.62 19.186901 4.530483 33.319677 1.275024
2003-09-08 07:48:11 51°15.24 2°39.62 19.188333 4.529428 33.312128 1.308734
2003-09-08 07:48:15 51°15.25 2°39.62 19.189848 4.527634 33.297364 1.308734
2003-09-08 07:48:21 51°15.28 2°39.62 19.189848 4.527634 33.297364 1.308734
2003-09-08 07:48:27 51°15.3 2°39.62 19.191445 4.527529 33.296496 1.376153
2003-09-08 07:48:31 51°15.31 2°39.62 19.194596 4.52679 33.289282 1.342443
2003-09-08 07:48:35 51°15.33 2°39.62 19.196479 4.525735 33.280031 1.376153
2003-09-08 07:48:41 51°15.35 2°39.62 19.199672 4.524786 33.271649 1.376153
2003-09-08 07:48:45 51°15.36 2°39.62 19.200736 4.524258 33.265039 1.376153
2003-09-08 07:48:51 51°15.38 2°39.62 19.200736 4.524258 33.265039 1.376153
2003-09-08 07:48:55 51°15.4 2°39.62 19.203069 4.523309 33.257792 1.342443
2003-09-08 07:49:01 51°15.42 2°39.63 19.204338 4.522148 33.247109 1.376153
2003-09-08 07:49:07 51°15.44 2°39.63 19.205238 4.520671 33.23269 1.376153
2003-09-08 07:49:11 51°15.45 2°39.63 19.208512 4.520882 33.233859 1.409862
2003-09-08 07:49:15 51°15.47 2°39.63 19.213341 4.520038 33.224084 1.443571
2003-09-08 07:49:21 51°15.49 2°39.64 19.213341 4.520038 33.224084 1.443571
2003-09-08 07:49:27 51°15.51 2°39.64 19.226598 4.518983 33.214839 1.376153
2003-09-08 07:49:31 51°15.52 2°39.64 19.234085 4.518244 33.206501 1.376153
2003-09-08 07:49:35 51°15.54 2°39.65 19.242512 4.518244 33.204238 1.443571
2003-09-08 07:49:41 51°15.56 2°39.65 19.2547 4.516767 33.190959 1.443571
2003-09-08 07:49:47 51°15.58 2°39.65 19.266233 4.516451 33.187225 1.409862
2003-09-08 07:49:51 51°15.6 2°39.66 19.266233 4.516451 33.187225 1.409862
2003-09-08 07:49:55 51°15.61 2°39.66 19.273511 4.515501 33.175461 1.409862
2003-09-08 07:50:01 51°15.63 2°39.66 19.27993 4.514763 33.166564 1.409862
2003-09-08 07:50:07 51°15.65 2°39.67 19.282301 4.51529 33.162992 1.443571
2003-09-08 07:50:11 51°15.66 2°39.67 19.28782 4.515606 33.160512 1.443571
2003-09-08 07:50:17 51°15.69 2°39.68 19.295504 4.515923 33.153517 1.477281
2003-09-08 07:50:21 51°15.7 2°39.69 19.295504 4.515923 33.153517 1.477281
2003-09-08 07:50:27 51°15.72 2°39.69 19.300818 4.516555 33.151947 1.477281
2003-09-08 07:50:31 51°15.73 2°39.7 19.303842 4.517505 33.152978 1.477281
2003-09-08 07:50:35 51°15.75 2°39.71 19.304128 4.517399 33.145909 1.477281
2003-09-08 07:50:41 51°15.77 2°39.71 19.305804 4.517716 33.143435 1.51099
2003-09-08 07:50:47 51°15.79 2°39.72 19.307316 4.518349 33.144687 1.51099
2003-09-08 07:50:51 51°15.8 2°39.72 19.307316 4.518349 33.144687 1.51099
2003-09-08 07:50:55 51°15.82 2°39.73 19.308419 4.519193 33.146544 1.51099
2003-09-08 07:51:01 51°15.84 2°39.74 19.308501 4.520142 33.150393 1.51099
2003-09-08 07:51:07 51°15.86 2°39.74 19.312505 4.520458 33.14961 1.477281
2003-09-08 07:51:11 51°15.87 2°39.75 19.314916 4.520669 33.148525 1.5447
2003-09-08 07:51:15 51°15.89 2°39.75 19.31839 4.521091 33.151425 1.5447
2003-09-08 07:51:21 51°15.91 2°39.76 19.31839 4.521091 33.151425 1.5447
2003-09-08 07:51:27 51°15.93 2°39.77 19.319983 4.520247 33.142246 1.51099
2003-09-08 07:51:31 51°15.94 2°39.77 19.321372 4.520353 33.141986 1.5447
2003-09-08 07:51:35 51°15.96 2°39.78 19.322925 4.520775 33.144885 1.51099
2003-09-08 07:51:41 51°15.98 2°39.78 19.322884 4.520986 33.143801 1.5447
2003-09-08 07:51:47 51°16 2°39.79 19.325131 4.521302 33.144709 1.477281
2003-09-08 07:51:51 51°16.01 2°39.8 19.325131 4.521302 33.144709 1.477281
2003-09-08 07:51:55 51°16.03 2°39.8 19.325826 4.521724 33.146482 1.5447
2003-09-08 07:52:01 51°16.05 2°39.81 19.32795 4.52183 33.145658 1.612118
2003-09-08 07:52:05 51°16.06 2°39.81 19.326439 4.522357 33.148296 1.51099
2003-09-08 07:52:11 51°16.08 2°39.82 19.329666 4.522252 33.146305 1.51099
2003-09-08 07:52:15 51°16.1 2°39.83 19.331545 4.523201 33.152968 1.51099
2003-09-08 07:52:21 51°16.12 2°39.83 19.331545 4.523201 33.152968 1.51099
2003-09-08 07:52:27 51°16.14 2°39.84 19.332771 4.522463 33.146347 1.51099
2003-09-08 07:52:31 51°16.15 2°39.84 19.333588 4.522674 33.145826 1.5447
2003-09-08 07:52:35 51°16.17 2°39.85 19.332526 4.522779 33.146692 1.5447
2003-09-08 07:52:41 51°16.19 2°39.86 19.332689 4.522463 33.143533 1.5447
2003-09-08 07:52:47 51°16.21 2°39.86 19.332607 4.523201 33.147901 1.5447
2003-09-08 07:52:51 51°16.22 2°39.87 19.332607 4.523201 33.147901 1.5447
2003-09-08 07:52:55 51°16.24 2°39.87 19.330892 4.523412 33.148506 1.578409
2003-09-08 07:53:01 51°16.26 2°39.88 19.332771 4.523834 33.150279 1.5447
2003-09-08 07:53:07 51°16.28 2°39.89 19.33465 4.523834 33.150279 1.5447
2003-09-08 07:53:11 51°16.29 2°39.89 19.334037 4.523939 33.149456 1.5447
2003-09-08 07:53:15 51°16.31 2°39.9 19.335916 4.523834 33.14859 1.578409
2003-09-08 07:53:21 51°16.33 2°39.9 19.335916 4.523834 33.14859 1.578409
2003-09-08 07:53:27 51°16.35 2°39.91 19.336979 4.524045 33.150884 1.578409
2003-09-08 07:53:31 51°16.36 2°39.91 19.336938 4.523728 33.148851 1.5447
2003-09-08 07:53:35 51°16.38 2°39.92 19.340777 4.524256 33.152614 1.578409
2003-09-08 07:53:41 51°16.4 2°39.93 19.344699 4.524467 33.152656 1.5447
2003-09-08 07:53:47 51°16.42 2°39.93 19.34719 4.524361 33.151228 1.477281
2003-09-08 07:53:51 51°16.43 2°39.94 19.34719 4.524361 33.151228 1.477281
2003-09-08 07:53:55 51°16.45 2°39.94 19.349681 4.524994 33.155856 1.51099
2003-09-08 07:54:01 51°16.47 2°39.95 19.355726 4.525838 33.162777 1.477281
2003-09-08 07:54:07 51°16.49 2°39.95 19.357319 4.525416 33.158191 1.578409
2003-09-08 07:54:11 51°16.5 2°39.96 19.358503 4.526366 33.164288 1.5447
2003-09-08 07:54:17 51°16.52 2°39.97 19.358135 4.527104 33.168655 1.5447
2003-09-08 07:54:21 51°16.54 2°39.97 19.358135 4.527104 33.168655 1.5447
2003-09-08 07:54:25 51°16.55 2°39.98 19.358911 4.527315 33.169259 1.578409
2003-09-08 07:54:31 51°16.57 2°39.98 19.359442 4.529214 33.182579 1.5447
2003-09-08 07:54:35 51°16.59 2°39.99 19.362668 4.529953 33.184692 1.5447
2003-09-08 07:54:41 51°16.61 2°39.99 19.369201 4.530691 33.187931 1.612118
2003-09-08 07:54:47 51°16.63 2°40 19.382674 4.531008 33.188837 1.578409
2003-09-08 07:54:51 51°16.64 2°40.01 19.382674 4.531008 33.188837 1.578409
2003-09-08 07:54:55 51°16.65 2°40.01 19.392716 4.530902 33.188535 1.578409
2003-09-08 07:55:01 51°16.68 2°40.02 19.399613 4.531641 33.1929 1.5447
2003-09-08 07:55:07 51°16.7 2°40.03 19.403531 4.532168 33.196662 1.5447
2003-09-08 07:55:11 51°16.71 2°40.04 19.411244 4.532485 33.19644 1.5447
2003-09-08 07:55:15 51°16.72 2°40.04 19.414672 4.534806 33.212088 1.578409
2003-09-08 07:55:21 51°16.74 2°40.05 19.414672 4.534806 33.212088 1.578409
2003-09-08 07:55:27 51°16.76 2°40.06 19.414427 4.536916 33.223186 1.645828
2003-09-08 07:55:31 51°16.78 2°40.07 19.415039 4.539659 33.23947 1.645828
2003-09-08 07:55:35 51°16.79 2°40.07 19.415039 4.541663 33.250826 1.679537
2003-09-08 07:55:41 51°16.81 2°40.08 19.414672 4.543984 33.263646 1.746956
2003-09-08 07:55:47 51°16.83 2°40.09 19.413692 4.44028 32.412246 1.780665
2003-09-08 07:55:51 51°16.85 2°40.1 19.413692 4.44028 32.412246 1.780665
2003-09-08 07:55:55 51°16.86 2°40.11 19.413896 4.549787 33.303297 1.915503
2003-09-08 07:56:01 51°16.88 2°40.12 19.412101 4.55158 33.315172 1.915503
2003-09-08 07:56:07 51°16.9 2°40.13 19.410877 4.552846 33.324981 1.915503
2003-09-08 07:56:11 51°16.91 2°40.13 19.408388 4.554429 33.336819 1.848084
2003-09-08 07:56:15 51°16.93 2°40.14 19.40802 4.555589 33.345765 1.915503
2003-09-08 07:56:21 51°16.95 2°40.15 19.40802 4.555589 33.345765 1.915503
2003-09-08 07:56:27 51°16.97 2°40.17 19.405898 4.555906 33.347793 1.881794
2003-09-08 07:56:31 51°16.98 2°40.17 19.40647 4.556433 33.353246 1.881794
2003-09-08 07:56:35 51°16.99 2°40.18 19.40749 4.556961 33.357004 1.949212
2003-09-08 07:56:41 51°17.01 2°40.19 19.408306 4.556855 33.357835 2.016631
2003-09-08 07:56:45 51°17.02 2°40.19 19.408755 4.557489 33.364153 1.949212
2003-09-08 07:56:51 51°17.03 2°40.2 19.408755 4.557489 33.364153 1.949212
2003-09-08 07:56:55 51°17.04 2°40.2 19.408673 4.5577 33.365317 2.016631
2003-09-08 07:57:01 51°17.05 2°40.21 19.409367 4.557489 33.364153 2.050341
2003-09-08 07:57:07 51°17.07 2°40.21 19.410061 4.5577 33.367013 2.08405
2003-09-08 07:57:11 51°17.07 2°40.22 19.411693 4.558016 33.370173 2.050341
2003-09-08 07:57:15 51°17.08 2°40.22 19.412183 4.557911 33.368743 2.050341
2003-09-08 07:57:21 51°17.09 2°40.22 19.41308 4.558544 33.372235 2.016631
2003-09-08 07:57:27 51°17.1 2°40.22 19.41308 4.558544 33.372235 2.016631
2003-09-08 07:57:31 51°17.1 2°40.22 19.413815 4.558227 33.371337 1.982922
2003-09-08 07:57:35 51°17.11 2°40.23 19.414141 4.557911 33.368177 1.915503
2003-09-08 07:57:41 51°17.12 2°40.23 19.41663 4.558333 33.370505 1.915503
2003-09-08 07:57:47 51°17.13 2°40.23 19.419935 4.558649 33.371969 1.881794
2003-09-08 07:57:51 51°17.13 2°40.23 19.419935 4.558649 33.371969 1.881794
2003-09-08 07:57:55 51°17.14 2°40.23 19.419731 4.559177 33.375161 1.881794
2003-09-08 07:58:01 51°17.14 2°40.24 19.420874 4.559493 33.376624 1.881794
2003-09-08 07:58:07 51°17.15 2°40.24 19.421526 4.559599 33.375793 1.814375
2003-09-08 07:58:11 51°17.15 2°40.24 19.420343 4.559177 33.373465 1.780665
2003-09-08 07:58:15 51°17.16 2°40.25 19.421934 4.559704 33.377223 1.814375
2003-09-08 07:58:21 51°17.16 2°40.25 19.421934 4.559704 33.377223 1.814375
2003-09-08 07:58:27 51°17.17 2°40.25 19.420792 4.538076 33.197799 1.780665
2003-09-08 07:58:31 51°17.17 2°40.26 19.419568 4.560443 33.379317 1.848084
2003-09-08 07:58:35 51°17.17 2°40.26 19.42071 4.560443 33.379317 1.780665
2003-09-08 07:58:41 51°17.18 2°40.26 19.420343 4.559915 33.37443 1.780665
2003-09-08 07:58:47 51°17.18 2°40.27 19.422914 4.560654 33.379351 1.814375
2003-09-08 07:58:51 51°17.18 2°40.27 19.422914 4.560654 33.379351 1.814375
2003-09-08 07:58:55 51°17.19 2°40.27 19.425076 4.559493 33.370406 1.848084
2003-09-08 07:59:01 51°17.19 2°40.28 19.425606 4.560865 33.381645 1.814375
2003-09-08 07:59:07 51°17.19 2°40.28 19.427809 4.56097 33.382509 1.746956
2003-09-08 07:59:11 51°17.2 2°40.29 19.42887 4.560759 33.381346 1.780665
2003-09-08 07:59:15 51°17.2 2°40.29 19.428952 4.561392 33.386533 1.848084
2003-09-08 07:59:21 51°17.2 2°40.29 19.428952 4.561392 33.386533 1.848084
2003-09-08 07:59:27 51°17.21 2°40.3 19.428054 4.559493 33.369841 1.746956
2003-09-08 07:59:31 51°17.21 2°40.3 19.427075 4.559704 33.37044 1.713247
2003-09-08 07:59:35 51°17.21 2°40.31 19.459338 4.560548 33.376225 1.746956
2003-09-08 07:59:41 51°17.21 2°40.31 19.425157 4.560231 33.371371 1.746956
2003-09-08 07:59:47 51°17.22 2°40.32 19.428625 4.560442 33.3731 1.780665
2003-09-08 07:59:51 51°17.22 2°40.32 19.428625 4.560442 33.3731 1.780665
2003-09-08 07:59:55 51°17.22 2°40.32 19.431766 4.561075 33.377721 1.814375
2003-09-08 08:00:01 51°17.23 2°40.33 19.431603 4.560759 33.375128 1.746956
2003-09-08 08:00:07 51°17.23 2°40.33 19.432215 4.560548 33.373399 1.746956
2003-09-08 08:00:11 51°17.23 2°40.34 19.431685 4.561075 33.378286 1.814375
2003-09-08 08:00:15 51°17.23 2°40.34 19.432134 4.560759 33.375693 1.746956
2003-09-08 08:00:21 51°17.24 2°40.34 19.432134 4.560759 33.375693 1.746956
2003-09-08 08:00:27 51°17.24 2°40.35 19.433276 4.560548 33.373399 1.780665
2003-09-08 08:00:31 51°17.24 2°40.35 19.437029 4.561392 33.378619 1.780665
2003-09-08 08:00:35 51°17.25 2°40.36 19.441434 4.560864 33.373167 1.814375
2003-09-08 08:00:41 51°17.25 2°40.36 19.444534 4.561392 33.376923 1.780665
2003-09-08 08:00:47 51°17.25 2°40.37 19.448082 4.561181 33.37576 1.746956
2003-09-08 08:00:51 51°17.26 2°40.37 19.448082 4.561181 33.37576 1.746956
2003-09-08 08:00:55 51°17.26 2°40.37 19.450284 4.559915 33.364259 1.746956
2003-09-08 08:01:01 51°17.26 2°40.38 19.451671 4.561181 33.37463 1.679537
2003-09-08 08:01:07 51°17.27 2°40.38 19.451549 4.56213 33.381278 1.713247
2003-09-08 08:01:11 51°17.27 2°40.38 19.45318 4.561919 33.375594 1.679537
2003-09-08 08:01:17 51°17.27 2°40.39 19.45738 4.562447 33.378785 1.645828
2003-09-08 08:01:21 51°17.28 2°40.39 19.45738 4.562447 33.378785 1.645828
2003-09-08 08:01:25 51°17.28 2°40.39 19.458767 4.562974 33.379716 1.645828
2003-09-08 08:01:31 51°17.28 2°40.4 19.458278 4.563185 33.379185 1.679537
2003-09-08 08:01:35 51°17.29 2°40.4 19.459746 4.563607 33.382076 1.645828
2003-09-08 08:01:41 51°17.29 2°40.4 19.463212 4.56424 33.385565 1.645828
2003-09-08 08:01:47 51°17.29 2°40.4 19.465699 4.564451 33.386728 1.612118
2003-09-08 08:01:51 51°17.3 2°40.4 19.465699 4.564451 33.386728 1.612118
2003-09-08 08:01:55 51°17.3 2°40.4 19.467452 4.564451 33.384469 1.612118
2003-09-08 08:02:01 51°17.3 2°40.4 19.469001 4.563924 33.378455 1.645828
2003-09-08 08:02:07 51°17.3 2°40.4 19.469328 4.564451 33.383339 1.645828
2003-09-08 08:02:11 51°17.3 2°40.4 19.469735 4.564768 33.382542 1.578409
2003-09-08 08:02:17 51°17.3 2°40.4 19.470469 4.565717 33.390316 1.612118
2003-09-08 08:02:21 51°17.3 2°40.4 19.470469 4.565717 33.390316 1.612118
2003-09-08 08:02:27 51°17.3 2°40.4 19.470918 4.565612 33.386629 1.578409
2003-09-08 08:02:31 51°17.3 2°40.4 19.471244 4.56519 33.383173 1.612118
2003-09-08 08:02:35 51°17.3 2°40.4 19.470877 4.566139 33.388688 1.578409
2003-09-08 08:02:41 51°17.3 2°40.4 19.471815 4.565823 33.385532 1.578409
2003-09-08 08:02:45 51°17.31 2°40.4 19.472752 4.566034 33.386695 1.578409
2003-09-08 08:02:51 51°17.31 2°40.4 19.472752 4.566034 33.386695 1.578409
2003-09-08 08:02:55 51°17.31 2°40.4 19.472467 4.566456 33.389021 1.612118
2003-09-08 08:03:01 51°17.31 2°40.4 19.474791 4.566667 33.390183 1.578409
2003-09-08 08:03:05 51°17.31 2°40.4 19.476096 4.566667 33.389619 1.612118
2003-09-08 08:03:11 51°17.31 2°40.4 19.4774 4.566245 33.387293 1.645828
2003-09-08 08:03:15 51°17.31 2°40.4 19.47846 4.566667 33.389619 1.578409
2003-09-08 08:03:21 51°17.31 2°40.4 19.47846 4.566667 33.389619 1.578409
2003-09-08 08:03:27 51°17.31 2°40.4 19.479683 4.566456 33.387891 1.612118
2003-09-08 08:03:31 51°17.31 2°40.4 19.482047 4.5673 33.393106 1.578409
2003-09-08 08:03:37 51°17.31 2°40.4 19.482129 4.567089 33.390814 1.612118
2003-09-08 08:03:41 51°17.31 2°40.4 19.483433 4.567194 33.390549 1.645828
2003-09-08 08:03:45 51°17.31 2°40.39 19.484779 4.567405 33.391711 1.645828
2003-09-08 08:03:51 51°17.31 2°40.39 19.484779 4.567405 33.391711 1.645828
2003-09-08 08:03:57 51°17.31 2°40.39 19.483678 4.567827 33.393472 1.645828
2003-09-08 08:04:01 51°17.31 2°40.39 19.48274 4.567933 33.393206 1.645828
2003-09-08 08:04:07 51°17.31 2°40.39 19.482333 4.565506 33.372781 1.612118
2003-09-08 08:04:11 51°17.31 2°40.39 19.481762 4.565823 33.375936 1.645828
2003-09-08 08:04:15 51°17.31 2°40.39 19.481191 4.568566 33.396129 1.612118
2003-09-08 08:04:21 51°17.31 2°40.39 19.481191 4.568566 33.396129 1.612118
2003-09-08 08:04:27 51°17.31 2°40.39 19.481069 4.568882 33.39759 1.612118
2003-09-08 08:04:31 51°17.31 2°40.39 19.481354 4.568249 33.391844 1.612118
2003-09-08 08:04:35 51°17.31 2°40.39 19.480784 4.568038 33.390682 1.612118
2003-09-08 08:04:41 51°17.32 2°40.39 19.480702 4.56846 33.394136 1.612118
2003-09-08 08:04:47 51°17.32 2°40.39 19.481884 4.568566 33.394999 1.612118
2003-09-08 08:04:51 51°17.32 2°40.38 19.481884 4.568566 33.394999 1.612118
2003-09-08 08:04:55 51°17.32 2°40.38 19.482129 4.568355 33.393837 1.612118
2003-09-08 08:05:01 51°17.32 2°40.38 19.482374 4.568671 33.396992 1.578409
2003-09-08 08:05:07 51°17.32 2°40.38 19.482659 4.568777 33.397291 1.578409
2003-09-08 08:05:11 51°17.32 2°40.38 19.483719 4.568566 33.396129 1.578409
2003-09-08 08:05:15 51°17.32 2°40.38 19.485186 4.568671 33.397557 1.612118
2003-09-08 08:05:21 51°17.32 2°40.38 19.485186 4.568671 33.397557 1.612118
2003-09-08 08:05:25 51°17.32 2°40.38 19.486694 4.568249 33.392974 1.5447
2003-09-08 08:05:31 51°17.32 2°40.38 19.488977 4.568777 33.396726 1.578409
2003-09-08 08:05:35 51°17.32 2°40.38 19.490485 4.568882 33.39759 1.612118
2003-09-08 08:05:41 51°17.32 2°40.38 19.490567 4.568144 33.391546 1.578409
2003-09-08 08:05:47 51°17.32 2°40.37 19.491667 4.568566 33.394999 1.578409
2003-09-08 08:05:51 51°17.32 2°40.37 19.491667 4.568566 33.394999 1.578409
2003-09-08 08:05:57 51°17.32 2°40.37 19.49183 4.568882 33.395896 1.578409
2003-09-08 08:06:01 51°17.32 2°40.37 19.490404 4.569093 33.395929 1.578409
2003-09-08 08:06:07 51°17.33 2°40.37 19.489874 4.569199 33.397357 1.578409
2003-09-08 08:06:11 51°17.33 2°40.37 19.489874 4.569199 33.396228 1.612118
2003-09-08 08:06:15 51°17.33 2°40.36 19.492197 4.569726 33.397158 1.612118
2003-09-08 08:06:21 51°17.34 2°40.36 19.492197 4.569726 33.397158 1.612118
2003-09-08 08:06:27 51°17.35 2°40.36 19.493257 4.569726 33.397722 1.612118
2003-09-08 08:06:31 51°17.35 2°40.35 19.524308 4.569304 33.394269 1.578409
2003-09-08 08:06:35 51°17.36 2°40.35 19.490485 4.56941 33.395697 1.578409
2003-09-08 08:06:41 51°17.37 2°40.35 19.488366 4.569515 33.395996 1.578409
2003-09-08 08:06:47 51°17.38 2°40.35 19.487387 4.569832 33.397457 1.612118
2003-09-08 08:06:51 51°17.38 2°40.35 19.487387 4.569832 33.397457 1.612118
2003-09-08 08:06:55 51°17.39 2°40.35 19.48592 4.569515 33.395431 1.578409
2003-09-08 08:07:01 51°17.4 2°40.35 19.517504 4.569304 33.390319 1.5447
2003-09-08 08:07:07 51°17.41 2°40.35 19.484779 4.569726 33.397158 1.5447
2003-09-08 08:07:11 51°17.42 2°40.36 19.484738 4.569726 33.398851 1.645828
2003-09-08 08:07:15 51°17.42 2°40.36 19.48327 4.568988 33.393372 1.645828
2003-09-08 08:07:21 51°17.43 2°40.37 19.48327 4.568988 33.393372 1.645828
2003-09-08 08:07:27 51°17.44 2°40.38 19.480172 4.569832 33.400279 1.679537
2003-09-08 08:07:31 51°17.44 2°40.39 19.478338 4.569304 33.395398 1.679537
2003-09-08 08:07:37 51°17.45 2°40.4 19.47793 4.569093 33.3948 1.612118
2003-09-08 08:07:41 51°17.45 2°40.41 19.480458 4.569621 33.399682 1.645828
2003-09-08 08:07:45 51°17.45 2°40.42 19.484249 4.569515 33.398818 1.645828
2003-09-08 08:07:51 51°17.45 2°40.44 19.484249 4.569515 33.398818 1.645828
2003-09-08 08:07:55 51°17.45 2°40.45 19.488243 4.56941 33.39739 1.645828
2003-09-08 08:08:01 51°17.45 2°40.47 19.489099 4.569304 33.398221 1.679537
2003-09-08 08:08:07 51°17.45 2°40.48 19.492523 4.569093 33.397623 1.713247
2003-09-08 08:08:11 51°17.45 2°40.49 19.496151 4.569304 33.399914 1.713247
2003-09-08 08:08:17 51°17.44 2°40.5 19.495947 4.56941 33.401343 1.713247
2003-09-08 08:08:21 51°17.44 2°40.51 19.495947 4.56941 33.401343 1.713247
2003-09-08 08:08:27 51°17.43 2°40.53 19.49774 4.56941 33.39739 1.713247
2003-09-08 08:08:31 51°17.42 2°40.54 19.498637 4.569304 33.395962 1.679537
2003-09-08 08:08:35 51°17.42 2°40.55 19.500552 4.569832 33.397457 1.679537
2003-09-08 08:08:41 51°17.41 2°40.56 19.503649 4.570148 33.398353 1.746956
2003-09-08 08:08:47 51°17.4 2°40.57 19.502427 4.570781 33.402404 1.713247
2003-09-08 08:08:51 51°17.4 2°40.58 19.502427 4.570781 33.402404 1.713247
2003-09-08 08:08:55 51°17.39 2°40.58 19.505076 4.570781 33.401275 1.679537
2003-09-08 08:09:01 51°17.39 2°40.6 19.507439 4.570887 33.401574 1.713247
2003-09-08 08:09:07 51°17.39 2°40.61 19.508173 4.571942 33.408512 1.679537
2003-09-08 08:09:11 51°17.38 2°40.62 19.513633 4.571309 33.40164 1.679537
2003-09-08 08:09:15 51°17.38 2°40.63 19.518237 4.569726 33.388693 1.679537
2003-09-08 08:09:21 51°17.38 2°40.64 19.518237 4.569726 33.388693 1.679537
2003-09-08 08:09:27 51°17.39 2°40.66 19.523615 4.568882 33.380096 1.679537
2003-09-08 08:09:31 51°17.39 2°40.67 19.527771 4.568882 33.378969 1.612118
2003-09-08 08:09:35 51°17.39 2°40.67 19.530419 4.569937 33.386471 1.578409
2003-09-08 08:09:41 51°17.4 2°40.68 19.531111 4.571308 33.39769 1.578409
2003-09-08 08:09:47 51°17.41 2°40.69 19.532089 4.568987 33.377012 1.5447
2003-09-08 08:09:51 51°17.41 2°40.69 19.532089 4.568987 33.377012 1.5447
2003-09-08 08:09:55 51°17.42 2°40.69 19.534288 4.569093 33.37562 1.612118
2003-09-08 08:10:01 51°17.43 2°40.69 19.53437 4.569937 33.377449 1.578409
2003-09-08 08:10:05 51°17.43 2°40.69 19.53437 4.570253 33.378909 1.645828
2003-09-08 08:10:11 51°17.44 2°40.69 19.535144 4.570781 33.379841 1.5447
2003-09-08 08:10:15 51°17.44 2°40.68 19.535673 4.570992 33.379312 1.578409
2003-09-08 08:10:21 51°17.45 2°40.67 19.535673 4.570992 33.379312 1.578409
2003-09-08 08:10:27 51°17.46 2°40.66 19.536325 4.57057 33.374734 1.612118
2003-09-08 08:10:31 51°17.46 2°40.65 19.53551 4.571414 33.379944 1.679537
2003-09-08 08:10:35 51°17.46 2°40.64 19.533677 4.571414 33.380508 1.645828
2003-09-08 08:10:41 51°17.46 2°40.62 19.5327 4.572574 33.388305 1.679537
2003-09-08 08:10:45 51°17.46 2°40.61 19.533555 4.571836 33.38114 1.746956
2003-09-08 08:10:51 51°17.46 2°40.59 19.533555 4.571836 33.38114 1.746956
2003-09-08 08:10:55 51°17.46 2°40.58 19.534451 4.571414 33.378254 1.713247
2003-09-08 08:11:01 51°17.46 2°40.56 19.531722 4.572258 33.385154 1.713247
2003-09-08 08:11:07 51°17.46 2°40.55 19.528993 4.572574 33.387178 1.746956
2003-09-08 08:11:11 51°17.46 2°40.54 19.52606 4.572363 33.38658 1.746956
2003-09-08 08:11:15 51°17.45 2°40.53 19.525123 4.572363 33.387144 1.713247
2003-09-08 08:11:21 51°17.45 2°40.52 19.525123 4.572363 33.387144 1.713247
2003-09-08 08:11:25 51°17.45 2°40.51 19.523778 4.572891 33.390893 1.679537
2003-09-08 08:11:31 51°17.45 2°40.5 19.520967 4.57384 33.398656 1.713247
2003-09-08 08:11:35 51°17.44 2°40.5 19.518645 4.572785 33.390594 1.645828
2003-09-08 08:11:41 51°17.44 2°40.5 19.518196 4.572996 33.393447 1.679537
2003-09-08 08:11:45 51°17.44 2°40.5 19.517585 4.571836 33.383958 1.679537
2003-09-08 08:11:51 51°17.44 2°40.49 19.517585 4.571836 33.383958 1.679537
2003-09-08 08:11:55 51°17.44 2°40.49 19.515915 4.571941 33.387075 1.578409
2003-09-08 08:12:01 51°17.44 2°40.49 19.51567 4.571203 33.382164 1.612118
2003-09-08 08:12:07 51°17.44 2°40.49 19.515467 4.571097 33.381865 1.645828
2003-09-08 08:12:11 51°17.44 2°40.49 19.515589 4.570464 33.37838 1.645828
2003-09-08 08:12:15 51°17.44 2°40.49 19.515222 4.571308 33.386973 1.679537
2003-09-08 08:12:21 51°17.44 2°40.49 19.515222 4.571308 33.386973 1.679537
2003-09-08 08:12:27 51°17.43 2°40.49 19.514774 4.570886 33.382958 1.645828
2003-09-08 08:12:31 51°17.43 2°40.49 19.513959 4.571519 33.389826 1.746956
2003-09-08 08:12:37 51°17.43 2°40.49 19.513185 4.571414 33.390655 1.746956
2003-09-08 08:12:41 51°17.43 2°40.49 19.511718 4.56962 33.376551 1.780665
2003-09-08 08:12:47 51°17.43 2°40.49 19.510903 4.571625 33.392381 1.713247
2003-09-08 08:12:53 51°17.43 2°40.49 19.510903 4.571625 33.392381 1.713247
2003-09-08 08:12:57 51°17.43 2°40.49 19.509721 4.570781 33.385478 1.713247
2003-09-08 08:13:03 51°17.43 2°40.48 19.509029 4.57057 33.382061 1.679537
2003-09-08 08:13:07 51°17.43 2°40.48 19.507195 4.571203 33.390058 1.746956
2003-09-08 08:13:13 51°17.43 2°40.48 19.506584 4.570464 33.384582 1.713247
2003-09-08 08:13:19 51°17.43 2°40.48 19.505769 4.569831 33.380532 1.645828
2003-09-08 08:13:23 51°17.43 2°40.48 19.505769 4.569831 33.380532 1.645828
2003-09-08 08:13:29 51°17.42 2°40.48 19.504546 4.570781 33.388862 1.679537
2003-09-08 08:13:33 51°17.42 2°40.48 19.504261 4.569831 33.381096 1.679537
2003-09-08 08:13:39 51°17.42 2°40.48 19.503772 4.570675 33.389691 1.679537
2003-09-08 08:13:43 51°17.42 2°40.48 19.503935 4.570253 33.386803 1.679537
2003-09-08 08:13:49 51°17.42 2°40.47 19.503935 4.57057 33.389956 1.679537
2003-09-08 08:13:55 51°17.42 2°40.47 19.503935 4.57057 33.389956 1.679537
2003-09-08 08:13:59 51°17.42 2°40.47 19.504505 4.57057 33.391084 1.679537
2003-09-08 08:14:05 51°17.41 2°40.47 19.504383 4.571625 33.399715 1.679537
2003-09-08 08:14:09 51°17.41 2°40.46 19.503935 4.570042 33.386769 1.645828
2003-09-08 08:14:13 51°17.41 2°40.46 19.504179 4.569409 33.383284 1.645828
2003-09-08 08:14:17 51°17.41 2°40.45 19.504831 4.571625 33.400279 1.645828
2003-09-08 08:14:21 51°17.4 2°40.45 19.504831 4.571625 33.400279 1.645828
2003-09-08 08:14:25 51°17.4 2°40.44 19.505443 4.570886 33.393109 1.713247
2003-09-08 08:14:31 51°17.4 2°40.43 19.507806 4.568987 33.378704 1.645828
2003-09-08 08:14:35 51°17.4 2°40.42 19.508132 4.569831 33.386736 1.645828
2003-09-08 08:14:39 51°17.4 2°40.41 19.509029 4.568987 33.378704 1.713247
2003-09-08 08:14:45 51°17.41 2°40.4 19.507643 4.569409 33.383284 1.645828
2003-09-08 08:14:51 51°17.41 2°40.38 19.507643 4.569409 33.383284 1.645828
2003-09-08 08:14:55 51°17.42 2°40.38 19.504464 4.569198 33.38043 1.679537
2003-09-08 08:14:59 51°17.42 2°40.37 19.501449 4.569304 33.380165 1.645828
2003-09-08 08:15:05 51°17.43 2°40.37 19.500837 4.569831 33.383916 1.713247
2003-09-08 08:15:11 51°17.44 2°40.36 19.50206 4.572152 33.401773 1.679537
2003-09-08 08:15:15 51°17.44 2°40.36 19.498637 4.572363 33.40237 1.679537
2003-09-08 08:15:19 51°17.45 2°40.36 19.498637 4.572363 33.40237 1.679537
2003-09-08 08:15:25 51°17.46 2°40.37 19.497292 4.572574 33.404096 1.679537
2003-09-08 08:15:31 51°17.47 2°40.37 19.497047 4.572258 33.402636 1.679537
2003-09-08 08:15:35 51°17.47 2°40.38 19.495254 4.572364 33.405192 1.679537
2003-09-08 08:15:39 51°17.48 2°40.39 19.495458 4.571942 33.402868 1.679537
2003-09-08 08:15:45 51°17.48 2°40.4 19.492442 4.572469 33.407183 1.645828
2003-09-08 08:15:51 51°17.49 2°40.41 19.492442 4.572469 33.407183 1.645828
2003-09-08 08:15:55 51°17.49 2°40.43 19.495295 4.572153 33.405723 1.612118
2003-09-08 08:15:59 51°17.49 2°40.44 19.496151 4.571836 33.404262 1.612118
2003-09-08 08:16:05 51°17.49 2°40.46 19.498107 4.572047 33.40486 1.578409
2003-09-08 08:16:11 51°17.5 2°40.47 19.499859 4.572047 33.40486 1.5447
2003-09-08 08:16:15 51°17.5 2°40.49 19.504179 4.571731 33.404528 1.578409
2003-09-08 08:16:21 51°17.5 2°40.51 19.507358 4.571942 33.406819 1.578409
2003-09-08 08:16:25 51°17.51 2°40.52 19.507358 4.571942 33.406819 1.578409
2003-09-08 08:16:29 51°17.51 2°40.54 19.510536 4.570992 33.400744 1.578409
2003-09-08 08:16:35 51°17.51 2°40.56 19.514489 4.571309 33.403898 1.612118
2003-09-08 08:16:39 51°17.51 2°40.57 19.516974 4.57152 33.406189 1.679537
2003-09-08 08:16:45 51°17.51 2°40.6 19.516811 4.572469 33.410006 1.713247
2003-09-08 08:16:51 51°17.52 2°40.62 19.516811 4.572469 33.410006 1.713247
2003-09-08 08:16:55 51°17.52 2°40.63 19.518482 4.571942 33.40569 1.645828
2003-09-08 08:17:01 51°17.53 2°40.66 19.521374 4.57268 33.409474 1.612118
2003-09-08 08:17:05 51°17.53 2°40.67 19.524593 4.572891 33.407249 1.5447
2003-09-08 08:17:11 51°17.53 2°40.68 19.530907 4.573313 33.409008 1.612118
2003-09-08 08:17:15 51°17.54 2°40.69 19.535592 4.573313 33.406751 1.645828
2003-09-08 08:17:21 51°17.54 2°40.7 19.535592 4.573313 33.406751 1.645828
2003-09-08 08:17:25 51°17.55 2°40.71 19.53824 4.573946 33.409672 1.645828
2003-09-08 08:17:31 51°17.56 2°40.72 19.537914 4.57384 33.408245 1.612118
2003-09-08 08:17:35 51°17.56 2°40.72 19.538158 4.574051 33.409406 1.578409
2003-09-08 08:17:41 51°17.57 2°40.73 19.540032 4.574262 33.408311 1.51099
2003-09-08 08:17:45 51°17.57 2°40.73 19.540195 4.574895 33.411795 1.477281
2003-09-08 08:17:51 51°17.58 2°40.73 19.540195 4.574895 33.411795 1.477281
2003-09-08 08:17:55 51°17.58 2°40.73 19.54382 4.575528 33.413022 1.443571
2003-09-08 08:18:01 51°17.58 2°40.73 19.5461 4.57595 33.413652 1.51099
2003-09-08 08:18:05 51°17.58 2°40.73 19.545123 4.576056 33.413387 1.477281
2003-09-08 08:18:11 51°17.58 2°40.73 19.544716 4.576161 33.412557 1.51099
2003-09-08 08:18:15 51°17.59 2°40.73 19.545123 4.576478 33.414017 1.477281
2003-09-08 08:18:21 51°17.59 2°40.73 19.545123 4.576478 33.414017 1.477281
2003-09-08 08:18:25 51°17.59 2°40.73 19.545204 4.576056 33.410567 1.477281
2003-09-08 08:18:31 51°17.59 2°40.73 19.545041 4.576583 33.412624 1.342443
2003-09-08 08:18:35 51°17.59 2°40.73 19.546019 4.576056 33.407184 1.376153
2003-09-08 08:18:39 51°17.59 2°40.73 19.547607 4.577216 33.417235 1.443571
2003-09-08 08:18:45 51°17.59 2°40.73 19.549277 4.577533 33.419822 1.51099
2003-09-08 08:18:51 51°17.59 2°40.73 19.549277 4.577533 33.419822 1.51099
2003-09-08 08:18:55 51°17.59 2°40.72 19.55111 4.577533 33.419822 1.477281
2003-09-08 08:18:59 51°17.59 2°40.72 19.552209 4.577744 33.419291 1.477281
2003-09-08 08:19:05 51°17.59 2°40.72 19.551639 4.576794 33.413221 1.51099